<?xml version="1.0" encoding="UTF-8" standalone="no" ?>
<gpx xmlns="http://www.topografix.com/GPX/1/1" xmlns:xsi="http://www.w3.org/2001/XMLSchema-instance" xsi:schemaLocation="http://www.topografix.com/GPX/1/1 http://www.topografix.com/GPX/1/1/gpx.xsd" version="1.1" creator="VisuGPX - https://www.visugpx.com">
  <metadata>
    <name>2017-11-06-46-Lamothe Cassel</name>
    <desc><![CDATA[Randonnée de 10,5km pour un dénivelé de 300m. Un circuit sans difficulté, passage en sous bois, découverte de l'église de Puycalvel et son mur clocher]]></desc>
  </metadata>
  <trk>
    <name><![CDATA[Tracé 6 nov. 2017 2:06:10 PM]]></name>
    <trkseg>
      <trkpt lat="44.61147" lon="1.50592">
        <ele>373.80013181041</ele>
        <time>2017-11-06T13:06:10Z</time>
      </trkpt>
      <trkpt lat="44.61147" lon="1.50592">
        <ele>373.80013181041</ele>
        <time>2017-11-06T13:06:16Z</time>
      </trkpt>
      <trkpt lat="44.61129" lon="1.50599">
        <ele>328.17880766199</ele>
        <time>2017-11-06T13:06:21Z</time>
      </trkpt>
      <trkpt lat="44.61128" lon="1.50599">
        <ele>320.57636404145</ele>
        <time>2017-11-06T13:06:22Z</time>
      </trkpt>
      <trkpt lat="44.6114" lon="1.50629">
        <ele>320.39212674392</ele>
        <time>2017-11-06T13:06:46Z</time>
      </trkpt>
      <trkpt lat="44.61152" lon="1.50638">
        <ele>320.2732676545</ele>
        <time>2017-11-06T13:06:49Z</time>
      </trkpt>
      <trkpt lat="44.61153" lon="1.50643">
        <ele>321.3000954531</ele>
        <time>2017-11-06T13:06:53Z</time>
      </trkpt>
      <trkpt lat="44.61158" lon="1.50652">
        <ele>318.25427451738</ele>
        <time>2017-11-06T13:06:57Z</time>
      </trkpt>
      <trkpt lat="44.61164" lon="1.50661">
        <ele>318.73071890321</ele>
        <time>2017-11-06T13:07:04Z</time>
      </trkpt>
      <trkpt lat="44.61168" lon="1.50668">
        <ele>321.13835475299</ele>
        <time>2017-11-06T13:07:15Z</time>
      </trkpt>
      <trkpt lat="44.61174" lon="1.50676">
        <ele>324.17004393074</ele>
        <time>2017-11-06T13:07:27Z</time>
      </trkpt>
      <trkpt lat="44.6118" lon="1.50668">
        <ele>327.71931762952</ele>
        <time>2017-11-06T13:07:34Z</time>
      </trkpt>
      <trkpt lat="44.61188" lon="1.50669">
        <ele>338.75159084558</ele>
        <time>2017-11-06T13:07:53Z</time>
      </trkpt>
      <trkpt lat="44.61195" lon="1.50672">
        <ele>340.63591690797</ele>
        <time>2017-11-06T13:07:58Z</time>
      </trkpt>
      <trkpt lat="44.61203" lon="1.50675">
        <ele>343.05555537289</ele>
        <time>2017-11-06T13:08:05Z</time>
      </trkpt>
      <trkpt lat="44.61207" lon="1.50677">
        <ele>344.29717051968</ele>
        <time>2017-11-06T13:08:09Z</time>
      </trkpt>
      <trkpt lat="44.61231" lon="1.50677">
        <ele>348.7524665502</ele>
        <time>2017-11-06T13:08:25Z</time>
      </trkpt>
      <trkpt lat="44.61239" lon="1.5068">
        <ele>349.00802846558</ele>
        <time>2017-11-06T13:08:30Z</time>
      </trkpt>
      <trkpt lat="44.61243" lon="1.50684">
        <ele>348.70286100721</ele>
        <time>2017-11-06T13:08:35Z</time>
      </trkpt>
      <trkpt lat="44.6127" lon="1.5069">
        <ele>349.91215512466</ele>
        <time>2017-11-06T13:08:53Z</time>
      </trkpt>
      <trkpt lat="44.61266" lon="1.50694">
        <ele>348.44754144552</ele>
        <time>2017-11-06T13:09:12Z</time>
      </trkpt>
      <trkpt lat="44.61262" lon="1.50699">
        <ele>348.49080489299</ele>
        <time>2017-11-06T13:09:16Z</time>
      </trkpt>
      <trkpt lat="44.61305" lon="1.5067">
        <ele>352.98219182534</ele>
        <time>2017-11-06T13:10:17Z</time>
      </trkpt>
      <trkpt lat="44.61306" lon="1.5067">
        <ele>352.93223176097</ele>
        <time>2017-11-06T13:10:18Z</time>
      </trkpt>
      <trkpt lat="44.61372" lon="1.50705">
        <ele>342.79201994441</ele>
        <time>2017-11-06T13:11:22Z</time>
      </trkpt>
      <trkpt lat="44.61388" lon="1.50712">
        <ele>339.08800788664</ele>
        <time>2017-11-06T13:11:34Z</time>
      </trkpt>
      <trkpt lat="44.61395" lon="1.50717">
        <ele>338.87226887314</ele>
        <time>2017-11-06T13:11:36Z</time>
      </trkpt>
      <trkpt lat="44.61412" lon="1.5073">
        <ele>339.55356104654</ele>
        <time>2017-11-06T13:11:42Z</time>
      </trkpt>
      <trkpt lat="44.61419" lon="1.50737">
        <ele>341.20925053812</ele>
        <time>2017-11-06T13:11:49Z</time>
      </trkpt>
      <trkpt lat="44.61423" lon="1.50745">
        <ele>342.76170570922</ele>
        <time>2017-11-06T13:11:55Z</time>
      </trkpt>
      <trkpt lat="44.6143" lon="1.50758">
        <ele>343.21579374526</ele>
        <time>2017-11-06T13:12:06Z</time>
      </trkpt>
      <trkpt lat="44.61439" lon="1.50763">
        <ele>344.19787358849</ele>
        <time>2017-11-06T13:12:15Z</time>
      </trkpt>
      <trkpt lat="44.61445" lon="1.5077">
        <ele>343.70186288877</ele>
        <time>2017-11-06T13:12:24Z</time>
      </trkpt>
      <trkpt lat="44.61453" lon="1.50776">
        <ele>341.14025309536</ele>
        <time>2017-11-06T13:12:34Z</time>
      </trkpt>
      <trkpt lat="44.61459" lon="1.50782">
        <ele>339.5413907747</ele>
        <time>2017-11-06T13:12:39Z</time>
      </trkpt>
      <trkpt lat="44.61464" lon="1.5079">
        <ele>339.01934244148</ele>
        <time>2017-11-06T13:12:45Z</time>
      </trkpt>
      <trkpt lat="44.6147" lon="1.508">
        <ele>339.03689224116</ele>
        <time>2017-11-06T13:12:50Z</time>
      </trkpt>
      <trkpt lat="44.61474" lon="1.50805">
        <ele>338.56602782115</ele>
        <time>2017-11-06T13:12:55Z</time>
      </trkpt>
      <trkpt lat="44.61498" lon="1.5084">
        <ele>337.91754070432</ele>
        <time>2017-11-06T13:13:19Z</time>
      </trkpt>
      <trkpt lat="44.6152" lon="1.50875">
        <ele>330.9038207138</ele>
        <time>2017-11-06T13:13:44Z</time>
      </trkpt>
      <trkpt lat="44.61555" lon="1.5094">
        <ele>328.17867616401</ele>
        <time>2017-11-06T13:14:36Z</time>
      </trkpt>
      <trkpt lat="44.61562" lon="1.50958">
        <ele>328.54133227125</ele>
        <time>2017-11-06T13:14:45Z</time>
      </trkpt>
      <trkpt lat="44.61563" lon="1.50962">
        <ele>329.19256260441</ele>
        <time>2017-11-06T13:14:48Z</time>
      </trkpt>
      <trkpt lat="44.61566" lon="1.50971">
        <ele>330.58613666954</ele>
        <time>2017-11-06T13:14:58Z</time>
      </trkpt>
      <trkpt lat="44.61569" lon="1.50985">
        <ele>330.82427024016</ele>
        <time>2017-11-06T13:15:03Z</time>
      </trkpt>
      <trkpt lat="44.61578" lon="1.50991">
        <ele>333.12388736478</ele>
        <time>2017-11-06T13:15:08Z</time>
      </trkpt>
      <trkpt lat="44.61579" lon="1.50991">
        <ele>333.73438784729</ele>
        <time>2017-11-06T13:15:09Z</time>
      </trkpt>
      <trkpt lat="44.61586" lon="1.51006">
        <ele>336.54873583213</ele>
        <time>2017-11-06T13:15:31Z</time>
      </trkpt>
      <trkpt lat="44.6159" lon="1.51016">
        <ele>336.67806627739</ele>
        <time>2017-11-06T13:15:34Z</time>
      </trkpt>
      <trkpt lat="44.61598" lon="1.51038">
        <ele>337.0742998266</ele>
        <time>2017-11-06T13:15:41Z</time>
      </trkpt>
      <trkpt lat="44.61604" lon="1.51046">
        <ele>337.8248910818</ele>
        <time>2017-11-06T13:15:47Z</time>
      </trkpt>
      <trkpt lat="44.61608" lon="1.51055">
        <ele>338.16553687302</ele>
        <time>2017-11-06T13:15:51Z</time>
      </trkpt>
      <trkpt lat="44.61612" lon="1.51065">
        <ele>337.51544980007</ele>
        <time>2017-11-06T13:15:57Z</time>
      </trkpt>
      <trkpt lat="44.61614" lon="1.5107">
        <ele>337.00334115183</ele>
        <time>2017-11-06T13:16:00Z</time>
      </trkpt>
      <trkpt lat="44.6162" lon="1.51085">
        <ele>334.95529782312</ele>
        <time>2017-11-06T13:16:07Z</time>
      </trkpt>
      <trkpt lat="44.61624" lon="1.51099">
        <ele>333.94980846055</ele>
        <time>2017-11-06T13:16:12Z</time>
      </trkpt>
      <trkpt lat="44.6163" lon="1.51231">
        <ele>322.10605096652</ele>
        <time>2017-11-06T13:17:17Z</time>
      </trkpt>
      <trkpt lat="44.6163" lon="1.51234">
        <ele>321.92972522674</ele>
        <time>2017-11-06T13:17:18Z</time>
      </trkpt>
      <trkpt lat="44.61628" lon="1.51247">
        <ele>321.80646008394</ele>
        <time>2017-11-06T13:17:25Z</time>
      </trkpt>
      <trkpt lat="44.61626" lon="1.51259">
        <ele>321.70362683865</ele>
        <time>2017-11-06T13:17:33Z</time>
      </trkpt>
      <trkpt lat="44.61628" lon="1.5127">
        <ele>320.4961833599</ele>
        <time>2017-11-06T13:17:40Z</time>
      </trkpt>
      <trkpt lat="44.61632" lon="1.51286">
        <ele>319.78592610817</ele>
        <time>2017-11-06T13:17:44Z</time>
      </trkpt>
      <trkpt lat="44.61633" lon="1.51297">
        <ele>318.94510244989</ele>
        <time>2017-11-06T13:17:49Z</time>
      </trkpt>
      <trkpt lat="44.61634" lon="1.51305">
        <ele>317.9483125065</ele>
        <time>2017-11-06T13:17:53Z</time>
      </trkpt>
      <trkpt lat="44.61638" lon="1.51325">
        <ele>317.74050091073</ele>
        <time>2017-11-06T13:18:04Z</time>
      </trkpt>
      <trkpt lat="44.61639" lon="1.51334">
        <ele>318.45637686699</ele>
        <time>2017-11-06T13:18:09Z</time>
      </trkpt>
      <trkpt lat="44.61638" lon="1.51346">
        <ele>319.3808664271</ele>
        <time>2017-11-06T13:18:16Z</time>
      </trkpt>
      <trkpt lat="44.61633" lon="1.51353">
        <ele>319.58074354322</ele>
        <time>2017-11-06T13:18:20Z</time>
      </trkpt>
      <trkpt lat="44.61629" lon="1.51362">
        <ele>319.06311615371</ele>
        <time>2017-11-06T13:18:26Z</time>
      </trkpt>
      <trkpt lat="44.61627" lon="1.51371">
        <ele>318.3561745835</ele>
        <time>2017-11-06T13:18:33Z</time>
      </trkpt>
      <trkpt lat="44.61626" lon="1.51382">
        <ele>317.11747136089</ele>
        <time>2017-11-06T13:18:40Z</time>
      </trkpt>
      <trkpt lat="44.61628" lon="1.51394">
        <ele>315.58695203762</ele>
        <time>2017-11-06T13:18:46Z</time>
      </trkpt>
      <trkpt lat="44.61629" lon="1.51401">
        <ele>314.93207398332</ele>
        <time>2017-11-06T13:18:50Z</time>
      </trkpt>
      <trkpt lat="44.61633" lon="1.51413">
        <ele>314.6322930904</ele>
        <time>2017-11-06T13:18:54Z</time>
      </trkpt>
      <trkpt lat="44.61636" lon="1.5142">
        <ele>314.16260658023</ele>
        <time>2017-11-06T13:19:00Z</time>
      </trkpt>
      <trkpt lat="44.61638" lon="1.5143">
        <ele>312.46712222174</ele>
        <time>2017-11-06T13:19:07Z</time>
      </trkpt>
      <trkpt lat="44.61644" lon="1.51437">
        <ele>310.67013606932</ele>
        <time>2017-11-06T13:19:15Z</time>
      </trkpt>
      <trkpt lat="44.61652" lon="1.51432">
        <ele>309.00583665235</ele>
        <time>2017-11-06T13:19:24Z</time>
      </trkpt>
      <trkpt lat="44.61658" lon="1.51425">
        <ele>307.38314625157</ele>
        <time>2017-11-06T13:19:33Z</time>
      </trkpt>
      <trkpt lat="44.61665" lon="1.51417">
        <ele>306.81749551472</ele>
        <time>2017-11-06T13:19:41Z</time>
      </trkpt>
      <trkpt lat="44.61671" lon="1.51408">
        <ele>305.93225555454</ele>
        <time>2017-11-06T13:19:50Z</time>
      </trkpt>
      <trkpt lat="44.61679" lon="1.51404">
        <ele>306.29743224193</ele>
        <time>2017-11-06T13:19:57Z</time>
      </trkpt>
      <trkpt lat="44.61687" lon="1.51399">
        <ele>307.25132604232</ele>
        <time>2017-11-06T13:20:07Z</time>
      </trkpt>
      <trkpt lat="44.61694" lon="1.51393">
        <ele>307.84229081681</ele>
        <time>2017-11-06T13:20:13Z</time>
      </trkpt>
      <trkpt lat="44.61699" lon="1.51385">
        <ele>308.37210374368</ele>
        <time>2017-11-06T13:20:18Z</time>
      </trkpt>
      <trkpt lat="44.61707" lon="1.51382">
        <ele>308.76362211583</ele>
        <time>2017-11-06T13:20:23Z</time>
      </trkpt>
      <trkpt lat="44.61716" lon="1.5138">
        <ele>310.13489708053</ele>
        <time>2017-11-06T13:20:30Z</time>
      </trkpt>
      <trkpt lat="44.61723" lon="1.51375">
        <ele>311.74289123115</ele>
        <time>2017-11-06T13:20:39Z</time>
      </trkpt>
      <trkpt lat="44.61731" lon="1.51371">
        <ele>312.78596225402</ele>
        <time>2017-11-06T13:20:46Z</time>
      </trkpt>
      <trkpt lat="44.61737" lon="1.51362">
        <ele>313.0949534735</ele>
        <time>2017-11-06T13:20:58Z</time>
      </trkpt>
      <trkpt lat="44.61744" lon="1.51357">
        <ele>313.746643406</ele>
        <time>2017-11-06T13:21:04Z</time>
      </trkpt>
      <trkpt lat="44.61751" lon="1.51359">
        <ele>314.5243657855</ele>
        <time>2017-11-06T13:21:11Z</time>
      </trkpt>
      <trkpt lat="44.61755" lon="1.51357">
        <ele>315.30904084561</ele>
        <time>2017-11-06T13:21:29Z</time>
      </trkpt>
      <trkpt lat="44.61762" lon="1.5135">
        <ele>315.27967100024</ele>
        <time>2017-11-06T13:21:35Z</time>
      </trkpt>
      <trkpt lat="44.61768" lon="1.51344">
        <ele>315.30679885241</ele>
        <time>2017-11-06T13:21:43Z</time>
      </trkpt>
      <trkpt lat="44.61771" lon="1.51342">
        <ele>315.32160405467</ele>
        <time>2017-11-06T13:21:44Z</time>
      </trkpt>
      <trkpt lat="44.61778" lon="1.51338">
        <ele>315.43833815175</ele>
        <time>2017-11-06T13:21:53Z</time>
      </trkpt>
      <trkpt lat="44.618" lon="1.51328">
        <ele>316.24457386355</ele>
        <time>2017-11-06T13:22:05Z</time>
      </trkpt>
      <trkpt lat="44.61806" lon="1.51327">
        <ele>316.87517589616</ele>
        <time>2017-11-06T13:22:09Z</time>
      </trkpt>
      <trkpt lat="44.61816" lon="1.51323">
        <ele>317.30516593244</ele>
        <time>2017-11-06T13:22:13Z</time>
      </trkpt>
      <trkpt lat="44.61825" lon="1.51323">
        <ele>317.98159877613</ele>
        <time>2017-11-06T13:22:18Z</time>
      </trkpt>
      <trkpt lat="44.61836" lon="1.51328">
        <ele>317.84203401516</ele>
        <time>2017-11-06T13:22:22Z</time>
      </trkpt>
      <trkpt lat="44.61845" lon="1.51329">
        <ele>318.60401658632</ele>
        <time>2017-11-06T13:22:30Z</time>
      </trkpt>
      <trkpt lat="44.61853" lon="1.51324">
        <ele>323.59867709978</ele>
        <time>2017-11-06T13:22:46Z</time>
      </trkpt>
      <trkpt lat="44.61859" lon="1.51317">
        <ele>326.8031599961</ele>
        <time>2017-11-06T13:22:56Z</time>
      </trkpt>
      <trkpt lat="44.61864" lon="1.51312">
        <ele>328.06682166485</ele>
        <time>2017-11-06T13:23:02Z</time>
      </trkpt>
      <trkpt lat="44.61872" lon="1.51313">
        <ele>329.35211719416</ele>
        <time>2017-11-06T13:23:08Z</time>
      </trkpt>
      <trkpt lat="44.61876" lon="1.51316">
        <ele>330.46267626456</ele>
        <time>2017-11-06T13:23:11Z</time>
      </trkpt>
      <trkpt lat="44.61882" lon="1.51324">
        <ele>331.11352501971</ele>
        <time>2017-11-06T13:23:15Z</time>
      </trkpt>
      <trkpt lat="44.6189" lon="1.51327">
        <ele>332.19261181178</ele>
        <time>2017-11-06T13:23:23Z</time>
      </trkpt>
      <trkpt lat="44.61898" lon="1.51329">
        <ele>333.07539150496</ele>
        <time>2017-11-06T13:23:29Z</time>
      </trkpt>
      <trkpt lat="44.61905" lon="1.51337">
        <ele>334.95245350331</ele>
        <time>2017-11-06T13:23:38Z</time>
      </trkpt>
      <trkpt lat="44.61912" lon="1.51338">
        <ele>336.31022715131</ele>
        <time>2017-11-06T13:23:43Z</time>
      </trkpt>
      <trkpt lat="44.6192" lon="1.51344">
        <ele>339.90442478975</ele>
        <time>2017-11-06T13:23:56Z</time>
      </trkpt>
      <trkpt lat="44.61927" lon="1.51349">
        <ele>341.53512675453</ele>
        <time>2017-11-06T13:24:02Z</time>
      </trkpt>
      <trkpt lat="44.61932" lon="1.5136">
        <ele>342.95651829204</ele>
        <time>2017-11-06T13:24:12Z</time>
      </trkpt>
      <trkpt lat="44.61941" lon="1.51362">
        <ele>343.90688932063</ele>
        <time>2017-11-06T13:24:21Z</time>
      </trkpt>
      <trkpt lat="44.61949" lon="1.51367">
        <ele>346.22716931111</ele>
        <time>2017-11-06T13:24:36Z</time>
      </trkpt>
      <trkpt lat="44.61954" lon="1.51375">
        <ele>345.18479434999</ele>
        <time>2017-11-06T13:24:45Z</time>
      </trkpt>
      <trkpt lat="44.61961" lon="1.51383">
        <ele>344.74195162292</ele>
        <time>2017-11-06T13:24:58Z</time>
      </trkpt>
      <trkpt lat="44.61969" lon="1.51383">
        <ele>345.58168573618</ele>
        <time>2017-11-06T13:25:11Z</time>
      </trkpt>
      <trkpt lat="44.61977" lon="1.51385">
        <ele>346.15356783416</ele>
        <time>2017-11-06T13:25:25Z</time>
      </trkpt>
      <trkpt lat="44.61986" lon="1.51386">
        <ele>346.4400739805</ele>
        <time>2017-11-06T13:25:36Z</time>
      </trkpt>
      <trkpt lat="44.61995" lon="1.5139">
        <ele>345.86703494067</ele>
        <time>2017-11-06T13:25:49Z</time>
      </trkpt>
      <trkpt lat="44.62003" lon="1.51392">
        <ele>346.88817210663</ele>
        <time>2017-11-06T13:26:02Z</time>
      </trkpt>
      <trkpt lat="44.62011" lon="1.5139">
        <ele>349.28546496799</ele>
        <time>2017-11-06T13:26:15Z</time>
      </trkpt>
      <trkpt lat="44.62018" lon="1.51398">
        <ele>353.95938981795</ele>
        <time>2017-11-06T13:26:46Z</time>
      </trkpt>
      <trkpt lat="44.62027" lon="1.51398">
        <ele>355.16868190898</ele>
        <time>2017-11-06T13:26:57Z</time>
      </trkpt>
      <trkpt lat="44.62035" lon="1.51391">
        <ele>356.6915166473</ele>
        <time>2017-11-06T13:27:09Z</time>
      </trkpt>
      <trkpt lat="44.62034" lon="1.51403">
        <ele>363.03783920765</ele>
        <time>2017-11-06T13:28:45Z</time>
      </trkpt>
      <trkpt lat="44.62031" lon="1.51414">
        <ele>362.47993833337</ele>
        <time>2017-11-06T13:28:55Z</time>
      </trkpt>
      <trkpt lat="44.62027" lon="1.51424">
        <ele>361.40162276285</ele>
        <time>2017-11-06T13:29:06Z</time>
      </trkpt>
      <trkpt lat="44.62024" lon="1.51436">
        <ele>359.07397285702</ele>
        <time>2017-11-06T13:29:16Z</time>
      </trkpt>
      <trkpt lat="44.62019" lon="1.51446">
        <ele>358.07342490099</ele>
        <time>2017-11-06T13:29:24Z</time>
      </trkpt>
      <trkpt lat="44.62014" lon="1.51456">
        <ele>357.42103335686</ele>
        <time>2017-11-06T13:29:33Z</time>
      </trkpt>
      <trkpt lat="44.62023" lon="1.51459">
        <ele>355.87174504493</ele>
        <time>2017-11-06T13:30:00Z</time>
      </trkpt>
      <trkpt lat="44.62029" lon="1.51451">
        <ele>354.3622955637</ele>
        <time>2017-11-06T13:30:08Z</time>
      </trkpt>
      <trkpt lat="44.62034" lon="1.51461">
        <ele>349.99166704421</ele>
        <time>2017-11-06T13:30:35Z</time>
      </trkpt>
      <trkpt lat="44.62032" lon="1.51471">
        <ele>346.83954836491</ele>
        <time>2017-11-06T13:30:47Z</time>
      </trkpt>
      <trkpt lat="44.6203" lon="1.51483">
        <ele>345.2967697426</ele>
        <time>2017-11-06T13:30:53Z</time>
      </trkpt>
      <trkpt lat="44.62025" lon="1.51492">
        <ele>343.74348120198</ele>
        <time>2017-11-06T13:31:00Z</time>
      </trkpt>
      <trkpt lat="44.62017" lon="1.51496">
        <ele>342.7020775266</ele>
        <time>2017-11-06T13:31:05Z</time>
      </trkpt>
      <trkpt lat="44.62012" lon="1.51506">
        <ele>341.96236616867</ele>
        <time>2017-11-06T13:31:14Z</time>
      </trkpt>
      <trkpt lat="44.62006" lon="1.51513">
        <ele>341.57237499653</ele>
        <time>2017-11-06T13:31:19Z</time>
      </trkpt>
      <trkpt lat="44.62" lon="1.51521">
        <ele>341.18476442399</ele>
        <time>2017-11-06T13:31:28Z</time>
      </trkpt>
      <trkpt lat="44.62" lon="1.51535">
        <ele>341.52508741959</ele>
        <time>2017-11-06T13:31:32Z</time>
      </trkpt>
      <trkpt lat="44.62005" lon="1.51545">
        <ele>341.7129334255</ele>
        <time>2017-11-06T13:31:37Z</time>
      </trkpt>
      <trkpt lat="44.62002" lon="1.51555">
        <ele>341.16930253113</ele>
        <time>2017-11-06T13:31:49Z</time>
      </trkpt>
      <trkpt lat="44.61996" lon="1.51554">
        <ele>340.92818174474</ele>
        <time>2017-11-06T13:31:53Z</time>
      </trkpt>
      <trkpt lat="44.61993" lon="1.51554">
        <ele>340.94006283653</ele>
        <time>2017-11-06T13:31:54Z</time>
      </trkpt>
      <trkpt lat="44.61984" lon="1.51556">
        <ele>341.37149072714</ele>
        <time>2017-11-06T13:32:03Z</time>
      </trkpt>
      <trkpt lat="44.61978" lon="1.51564">
        <ele>341.69923336322</ele>
        <time>2017-11-06T13:32:11Z</time>
      </trkpt>
      <trkpt lat="44.61969" lon="1.51568">
        <ele>341.72885710168</ele>
        <time>2017-11-06T13:32:16Z</time>
      </trkpt>
      <trkpt lat="44.61961" lon="1.51574">
        <ele>341.27616308714</ele>
        <time>2017-11-06T13:32:25Z</time>
      </trkpt>
      <trkpt lat="44.61956" lon="1.51584">
        <ele>341.65976114379</ele>
        <time>2017-11-06T13:32:31Z</time>
      </trkpt>
      <trkpt lat="44.6195" lon="1.51593">
        <ele>341.27648178139</ele>
        <time>2017-11-06T13:32:40Z</time>
      </trkpt>
      <trkpt lat="44.61948" lon="1.51605">
        <ele>342.11804284113</ele>
        <time>2017-11-06T13:32:50Z</time>
      </trkpt>
      <trkpt lat="44.61943" lon="1.51617">
        <ele>342.42087408198</ele>
        <time>2017-11-06T13:32:55Z</time>
      </trkpt>
      <trkpt lat="44.61938" lon="1.51626">
        <ele>342.28964159209</ele>
        <time>2017-11-06T13:33:04Z</time>
      </trkpt>
      <trkpt lat="44.61935" lon="1.51628">
        <ele>342.50242033755</ele>
        <time>2017-11-06T13:33:08Z</time>
      </trkpt>
      <trkpt lat="44.61927" lon="1.51636">
        <ele>342.81758389959</ele>
        <time>2017-11-06T13:33:12Z</time>
      </trkpt>
      <trkpt lat="44.61921" lon="1.51642">
        <ele>342.3251116622</ele>
        <time>2017-11-06T13:33:18Z</time>
      </trkpt>
      <trkpt lat="44.61913" lon="1.51645">
        <ele>341.01395696954</ele>
        <time>2017-11-06T13:33:26Z</time>
      </trkpt>
      <trkpt lat="44.61905" lon="1.51652">
        <ele>339.9227118253</ele>
        <time>2017-11-06T13:33:33Z</time>
      </trkpt>
      <trkpt lat="44.619" lon="1.51659">
        <ele>338.46717696372</ele>
        <time>2017-11-06T13:33:40Z</time>
      </trkpt>
      <trkpt lat="44.61895" lon="1.5167">
        <ele>337.23427399703</ele>
        <time>2017-11-06T13:33:45Z</time>
      </trkpt>
      <trkpt lat="44.61889" lon="1.51678">
        <ele>334.98639656823</ele>
        <time>2017-11-06T13:33:53Z</time>
      </trkpt>
      <trkpt lat="44.61884" lon="1.51688">
        <ele>331.88502491688</ele>
        <time>2017-11-06T13:34:05Z</time>
      </trkpt>
      <trkpt lat="44.61877" lon="1.51694">
        <ele>330.31588826508</ele>
        <time>2017-11-06T13:34:12Z</time>
      </trkpt>
      <trkpt lat="44.61873" lon="1.51705">
        <ele>328.89813963063</ele>
        <time>2017-11-06T13:34:19Z</time>
      </trkpt>
      <trkpt lat="44.61869" lon="1.51714">
        <ele>327.90799871051</ele>
        <time>2017-11-06T13:34:26Z</time>
      </trkpt>
      <trkpt lat="44.61864" lon="1.51724">
        <ele>326.43520672915</ele>
        <time>2017-11-06T13:34:32Z</time>
      </trkpt>
      <trkpt lat="44.61859" lon="1.51732">
        <ele>324.30520755175</ele>
        <time>2017-11-06T13:34:41Z</time>
      </trkpt>
      <trkpt lat="44.61852" lon="1.51738">
        <ele>323.51346037849</ele>
        <time>2017-11-06T13:34:46Z</time>
      </trkpt>
      <trkpt lat="44.61847" lon="1.51749">
        <ele>323.10917500815</ele>
        <time>2017-11-06T13:34:50Z</time>
      </trkpt>
      <trkpt lat="44.61845" lon="1.5176">
        <ele>322.60685084754</ele>
        <time>2017-11-06T13:34:56Z</time>
      </trkpt>
      <trkpt lat="44.61839" lon="1.5177">
        <ele>321.75749952619</ele>
        <time>2017-11-06T13:35:04Z</time>
      </trkpt>
      <trkpt lat="44.61837" lon="1.5178">
        <ele>321.1357860666</ele>
        <time>2017-11-06T13:35:09Z</time>
      </trkpt>
      <trkpt lat="44.61834" lon="1.51791">
        <ele>320.07750504924</ele>
        <time>2017-11-06T13:35:17Z</time>
      </trkpt>
      <trkpt lat="44.61832" lon="1.51801">
        <ele>318.40867871351</ele>
        <time>2017-11-06T13:35:25Z</time>
      </trkpt>
      <trkpt lat="44.61827" lon="1.51812">
        <ele>316.7513894881</ele>
        <time>2017-11-06T13:35:31Z</time>
      </trkpt>
      <trkpt lat="44.61824" lon="1.51823">
        <ele>315.7930663952</ele>
        <time>2017-11-06T13:35:36Z</time>
      </trkpt>
      <trkpt lat="44.61821" lon="1.51833">
        <ele>314.79611038905</ele>
        <time>2017-11-06T13:35:43Z</time>
      </trkpt>
      <trkpt lat="44.61818" lon="1.51843">
        <ele>314.01211462567</ele>
        <time>2017-11-06T13:35:49Z</time>
      </trkpt>
      <trkpt lat="44.61814" lon="1.51853">
        <ele>313.19091269303</ele>
        <time>2017-11-06T13:35:58Z</time>
      </trkpt>
      <trkpt lat="44.61808" lon="1.51861">
        <ele>312.73416325203</ele>
        <time>2017-11-06T13:36:03Z</time>
      </trkpt>
      <trkpt lat="44.61804" lon="1.51871">
        <ele>311.90176393491</ele>
        <time>2017-11-06T13:36:08Z</time>
      </trkpt>
      <trkpt lat="44.61799" lon="1.5188">
        <ele>311.32958375436</ele>
        <time>2017-11-06T13:36:16Z</time>
      </trkpt>
      <trkpt lat="44.61794" lon="1.51888">
        <ele>311.25485728054</ele>
        <time>2017-11-06T13:36:26Z</time>
      </trkpt>
      <trkpt lat="44.61787" lon="1.51896">
        <ele>312.02062521492</ele>
        <time>2017-11-06T13:36:33Z</time>
      </trkpt>
      <trkpt lat="44.61782" lon="1.51902">
        <ele>311.81324234876</ele>
        <time>2017-11-06T13:36:37Z</time>
      </trkpt>
      <trkpt lat="44.61777" lon="1.51911">
        <ele>312.109206694</ele>
        <time>2017-11-06T13:36:43Z</time>
      </trkpt>
      <trkpt lat="44.6177" lon="1.51915">
        <ele>314.86202997212</ele>
        <time>2017-11-06T13:36:55Z</time>
      </trkpt>
      <trkpt lat="44.61759" lon="1.51922">
        <ele>316.27045958363</ele>
        <time>2017-11-06T13:36:59Z</time>
      </trkpt>
      <trkpt lat="44.61754" lon="1.51925">
        <ele>318.92386635571</ele>
        <time>2017-11-06T13:37:07Z</time>
      </trkpt>
      <trkpt lat="44.61745" lon="1.51931">
        <ele>320.27477028011</ele>
        <time>2017-11-06T13:37:12Z</time>
      </trkpt>
      <trkpt lat="44.61733" lon="1.51931">
        <ele>320.94774360863</ele>
        <time>2017-11-06T13:37:17Z</time>
      </trkpt>
      <trkpt lat="44.61724" lon="1.51932">
        <ele>323.26048003237</ele>
        <time>2017-11-06T13:37:31Z</time>
      </trkpt>
      <trkpt lat="44.6171" lon="1.51933">
        <ele>323.79764887454</ele>
        <time>2017-11-06T13:37:36Z</time>
      </trkpt>
      <trkpt lat="44.61702" lon="1.51933">
        <ele>324.03218391208</ele>
        <time>2017-11-06T13:37:48Z</time>
      </trkpt>
      <trkpt lat="44.61694" lon="1.51934">
        <ele>324.74691835803</ele>
        <time>2017-11-06T13:37:54Z</time>
      </trkpt>
      <trkpt lat="44.61685" lon="1.51932">
        <ele>324.75717155352</ele>
        <time>2017-11-06T13:38:00Z</time>
      </trkpt>
      <trkpt lat="44.61677" lon="1.5193">
        <ele>324.92454973164</ele>
        <time>2017-11-06T13:38:08Z</time>
      </trkpt>
      <trkpt lat="44.61659" lon="1.51926">
        <ele>324.2225533581</ele>
        <time>2017-11-06T13:38:13Z</time>
      </trkpt>
      <trkpt lat="44.61651" lon="1.51924">
        <ele>324.06033359357</ele>
        <time>2017-11-06T13:38:19Z</time>
      </trkpt>
      <trkpt lat="44.61642" lon="1.51922">
        <ele>323.57973681663</ele>
        <time>2017-11-06T13:38:30Z</time>
      </trkpt>
      <trkpt lat="44.61634" lon="1.51919">
        <ele>323.15779922271</ele>
        <time>2017-11-06T13:38:37Z</time>
      </trkpt>
      <trkpt lat="44.61626" lon="1.51917">
        <ele>322.18098493335</ele>
        <time>2017-11-06T13:38:43Z</time>
      </trkpt>
      <trkpt lat="44.61616" lon="1.5191">
        <ele>321.54559450059</ele>
        <time>2017-11-06T13:38:48Z</time>
      </trkpt>
      <trkpt lat="44.61608" lon="1.51907">
        <ele>320.87586126695</ele>
        <time>2017-11-06T13:38:53Z</time>
      </trkpt>
      <trkpt lat="44.61599" lon="1.51906">
        <ele>320.62708998297</ele>
        <time>2017-11-06T13:38:58Z</time>
      </trkpt>
      <trkpt lat="44.6159" lon="1.51905">
        <ele>320.76066792422</ele>
        <time>2017-11-06T13:39:05Z</time>
      </trkpt>
      <trkpt lat="44.61582" lon="1.51905">
        <ele>321.33271288288</ele>
        <time>2017-11-06T13:39:11Z</time>
      </trkpt>
      <trkpt lat="44.61573" lon="1.51903">
        <ele>322.57174727422</ele>
        <time>2017-11-06T13:39:20Z</time>
      </trkpt>
      <trkpt lat="44.61565" lon="1.51899">
        <ele>322.26907002581</ele>
        <time>2017-11-06T13:39:27Z</time>
      </trkpt>
      <trkpt lat="44.61558" lon="1.51895">
        <ele>322.19527932273</ele>
        <time>2017-11-06T13:39:33Z</time>
      </trkpt>
      <trkpt lat="44.6155" lon="1.51892">
        <ele>322.00548953964</ele>
        <time>2017-11-06T13:39:39Z</time>
      </trkpt>
      <trkpt lat="44.61541" lon="1.51889">
        <ele>321.63208533376</ele>
        <time>2017-11-06T13:39:47Z</time>
      </trkpt>
      <trkpt lat="44.61533" lon="1.51887">
        <ele>322.09225209265</ele>
        <time>2017-11-06T13:39:53Z</time>
      </trkpt>
      <trkpt lat="44.61525" lon="1.51882">
        <ele>318.22015833234</ele>
        <time>2017-11-06T13:41:08Z</time>
      </trkpt>
      <trkpt lat="44.61519" lon="1.5189">
        <ele>313.52324877886</ele>
        <time>2017-11-06T13:41:41Z</time>
      </trkpt>
      <trkpt lat="44.61517" lon="1.51902">
        <ele>310.50594955583</ele>
        <time>2017-11-06T13:41:50Z</time>
      </trkpt>
      <trkpt lat="44.61523" lon="1.51914">
        <ele>303.4356876045</ele>
        <time>2017-11-06T13:41:55Z</time>
      </trkpt>
      <trkpt lat="44.61516" lon="1.5192">
        <ele>302.21356743949</ele>
        <time>2017-11-06T13:42:01Z</time>
      </trkpt>
      <trkpt lat="44.61511" lon="1.51931">
        <ele>300.90901521763</ele>
        <time>2017-11-06T13:42:09Z</time>
      </trkpt>
      <trkpt lat="44.61506" lon="1.5194">
        <ele>299.76989759973</ele>
        <time>2017-11-06T13:42:15Z</time>
      </trkpt>
      <trkpt lat="44.61501" lon="1.51948">
        <ele>299.63562990416</ele>
        <time>2017-11-06T13:42:20Z</time>
      </trkpt>
      <trkpt lat="44.61495" lon="1.51956">
        <ele>299.67875102161</ele>
        <time>2017-11-06T13:42:25Z</time>
      </trkpt>
      <trkpt lat="44.61495" lon="1.51968">
        <ele>299.18636841853</ele>
        <time>2017-11-06T13:42:31Z</time>
      </trkpt>
      <trkpt lat="44.61492" lon="1.51979">
        <ele>298.50020164677</ele>
        <time>2017-11-06T13:42:38Z</time>
      </trkpt>
      <trkpt lat="44.61491" lon="1.5199">
        <ele>297.96468934808</ele>
        <time>2017-11-06T13:42:45Z</time>
      </trkpt>
      <trkpt lat="44.61491" lon="1.52001">
        <ele>297.88738619251</ele>
        <time>2017-11-06T13:42:51Z</time>
      </trkpt>
      <trkpt lat="44.61489" lon="1.52012">
        <ele>297.82295495413</ele>
        <time>2017-11-06T13:42:58Z</time>
      </trkpt>
      <trkpt lat="44.61489" lon="1.52024">
        <ele>296.67867165941</ele>
        <time>2017-11-06T13:43:05Z</time>
      </trkpt>
      <trkpt lat="44.61489" lon="1.52036">
        <ele>295.93139828667</ele>
        <time>2017-11-06T13:43:14Z</time>
      </trkpt>
      <trkpt lat="44.6149" lon="1.52047">
        <ele>295.04001171069</ele>
        <time>2017-11-06T13:43:21Z</time>
      </trkpt>
      <trkpt lat="44.61492" lon="1.52058">
        <ele>294.45930208739</ele>
        <time>2017-11-06T13:43:27Z</time>
      </trkpt>
      <trkpt lat="44.61494" lon="1.5207">
        <ele>294.19394811944</ele>
        <time>2017-11-06T13:43:33Z</time>
      </trkpt>
      <trkpt lat="44.61495" lon="1.52082">
        <ele>293.68015283692</ele>
        <time>2017-11-06T13:43:40Z</time>
      </trkpt>
      <trkpt lat="44.61494" lon="1.52094">
        <ele>293.47319983891</ele>
        <time>2017-11-06T13:43:46Z</time>
      </trkpt>
      <trkpt lat="44.61494" lon="1.52105">
        <ele>292.88322559033</ele>
        <time>2017-11-06T13:43:53Z</time>
      </trkpt>
      <trkpt lat="44.61496" lon="1.52117">
        <ele>292.9381598063</ele>
        <time>2017-11-06T13:43:59Z</time>
      </trkpt>
      <trkpt lat="44.61498" lon="1.52127">
        <ele>292.79970992693</ele>
        <time>2017-11-06T13:44:05Z</time>
      </trkpt>
      <trkpt lat="44.61499" lon="1.52139">
        <ele>292.8489896244</ele>
        <time>2017-11-06T13:44:13Z</time>
      </trkpt>
      <trkpt lat="44.61499" lon="1.5215">
        <ele>292.89795237023</ele>
        <time>2017-11-06T13:44:19Z</time>
      </trkpt>
      <trkpt lat="44.61501" lon="1.52161">
        <ele>293.14909957901</ele>
        <time>2017-11-06T13:44:24Z</time>
      </trkpt>
      <trkpt lat="44.61499" lon="1.52173">
        <ele>293.46782421116</ele>
        <time>2017-11-06T13:44:29Z</time>
      </trkpt>
      <trkpt lat="44.61497" lon="1.52184">
        <ele>293.35015146776</ele>
        <time>2017-11-06T13:44:36Z</time>
      </trkpt>
      <trkpt lat="44.61498" lon="1.52195">
        <ele>292.93852910391</ele>
        <time>2017-11-06T13:44:44Z</time>
      </trkpt>
      <trkpt lat="44.61497" lon="1.52206">
        <ele>293.09286364133</ele>
        <time>2017-11-06T13:44:49Z</time>
      </trkpt>
      <trkpt lat="44.61495" lon="1.52218">
        <ele>292.77810837913</ele>
        <time>2017-11-06T13:44:55Z</time>
      </trkpt>
      <trkpt lat="44.61492" lon="1.52229">
        <ele>292.26016566373</ele>
        <time>2017-11-06T13:45:02Z</time>
      </trkpt>
      <trkpt lat="44.6149" lon="1.5224">
        <ele>291.81452844878</ele>
        <time>2017-11-06T13:45:08Z</time>
      </trkpt>
      <trkpt lat="44.61487" lon="1.52252">
        <ele>291.91700145424</ele>
        <time>2017-11-06T13:45:15Z</time>
      </trkpt>
      <trkpt lat="44.61485" lon="1.52264">
        <ele>291.37721577448</ele>
        <time>2017-11-06T13:45:22Z</time>
      </trkpt>
      <trkpt lat="44.61483" lon="1.52275">
        <ele>290.69600489934</ele>
        <time>2017-11-06T13:45:31Z</time>
      </trkpt>
      <trkpt lat="44.61482" lon="1.52288">
        <ele>289.6436468181</ele>
        <time>2017-11-06T13:45:38Z</time>
      </trkpt>
      <trkpt lat="44.61478" lon="1.52299">
        <ele>289.15140603765</ele>
        <time>2017-11-06T13:45:46Z</time>
      </trkpt>
      <trkpt lat="44.61474" lon="1.52308">
        <ele>288.98577949095</ele>
        <time>2017-11-06T13:45:53Z</time>
      </trkpt>
      <trkpt lat="44.6147" lon="1.52319">
        <ele>288.40898719044</ele>
        <time>2017-11-06T13:45:59Z</time>
      </trkpt>
      <trkpt lat="44.61467" lon="1.52331">
        <ele>287.73124558554</ele>
        <time>2017-11-06T13:46:05Z</time>
      </trkpt>
      <trkpt lat="44.61464" lon="1.5234">
        <ele>287.3568611923</ele>
        <time>2017-11-06T13:46:11Z</time>
      </trkpt>
      <trkpt lat="44.6146" lon="1.52351">
        <ele>286.89783279057</ele>
        <time>2017-11-06T13:46:18Z</time>
      </trkpt>
      <trkpt lat="44.61457" lon="1.52363">
        <ele>286.17206875867</ele>
        <time>2017-11-06T13:46:25Z</time>
      </trkpt>
      <trkpt lat="44.61453" lon="1.52374">
        <ele>285.7864100286</ele>
        <time>2017-11-06T13:46:32Z</time>
      </trkpt>
      <trkpt lat="44.6145" lon="1.52386">
        <ele>285.31978366724</ele>
        <time>2017-11-06T13:46:40Z</time>
      </trkpt>
      <trkpt lat="44.61446" lon="1.52396">
        <ele>285.29506940705</ele>
        <time>2017-11-06T13:46:45Z</time>
      </trkpt>
      <trkpt lat="44.6144" lon="1.52406">
        <ele>285.46956095769</ele>
        <time>2017-11-06T13:46:50Z</time>
      </trkpt>
      <trkpt lat="44.61436" lon="1.52417">
        <ele>284.87493975992</ele>
        <time>2017-11-06T13:46:57Z</time>
      </trkpt>
      <trkpt lat="44.61434" lon="1.52428">
        <ele>284.81700830813</ele>
        <time>2017-11-06T13:47:05Z</time>
      </trkpt>
      <trkpt lat="44.61431" lon="1.52439">
        <ele>284.94431627717</ele>
        <time>2017-11-06T13:47:12Z</time>
      </trkpt>
      <trkpt lat="44.61429" lon="1.5245">
        <ele>284.92733663936</ele>
        <time>2017-11-06T13:47:18Z</time>
      </trkpt>
      <trkpt lat="44.61428" lon="1.52461">
        <ele>284.94471304906</ele>
        <time>2017-11-06T13:47:26Z</time>
      </trkpt>
      <trkpt lat="44.61424" lon="1.52472">
        <ele>285.15111878073</ele>
        <time>2017-11-06T13:47:31Z</time>
      </trkpt>
      <trkpt lat="44.61421" lon="1.52482">
        <ele>285.57821473565</ele>
        <time>2017-11-06T13:47:37Z</time>
      </trkpt>
      <trkpt lat="44.6142" lon="1.52492">
        <ele>285.53213297649</ele>
        <time>2017-11-06T13:47:44Z</time>
      </trkpt>
      <trkpt lat="44.61417" lon="1.52504">
        <ele>285.67559339164</ele>
        <time>2017-11-06T13:47:50Z</time>
      </trkpt>
      <trkpt lat="44.61416" lon="1.52516">
        <ele>284.97119055214</ele>
        <time>2017-11-06T13:47:57Z</time>
      </trkpt>
      <trkpt lat="44.61415" lon="1.52527">
        <ele>284.56563053548</ele>
        <time>2017-11-06T13:48:02Z</time>
      </trkpt>
      <trkpt lat="44.61415" lon="1.52539">
        <ele>283.82628120287</ele>
        <time>2017-11-06T13:48:08Z</time>
      </trkpt>
      <trkpt lat="44.61414" lon="1.52551">
        <ele>283.32826126749</ele>
        <time>2017-11-06T13:48:16Z</time>
      </trkpt>
      <trkpt lat="44.61413" lon="1.5256">
        <ele>282.81746249583</ele>
        <time>2017-11-06T13:48:21Z</time>
      </trkpt>
      <trkpt lat="44.61411" lon="1.52573">
        <ele>282.19441056019</ele>
        <time>2017-11-06T13:48:27Z</time>
      </trkpt>
      <trkpt lat="44.6141" lon="1.52584">
        <ele>281.92821427467</ele>
        <time>2017-11-06T13:48:34Z</time>
      </trkpt>
      <trkpt lat="44.61408" lon="1.52595">
        <ele>281.59919900787</ele>
        <time>2017-11-06T13:48:40Z</time>
      </trkpt>
      <trkpt lat="44.61406" lon="1.52606">
        <ele>281.24661266571</ele>
        <time>2017-11-06T13:48:47Z</time>
      </trkpt>
      <trkpt lat="44.61405" lon="1.52617">
        <ele>280.7063282366</ele>
        <time>2017-11-06T13:48:52Z</time>
      </trkpt>
      <trkpt lat="44.61403" lon="1.52627">
        <ele>280.10901877386</ele>
        <time>2017-11-06T13:48:57Z</time>
      </trkpt>
      <trkpt lat="44.61402" lon="1.52638">
        <ele>279.86956247139</ele>
        <time>2017-11-06T13:49:03Z</time>
      </trkpt>
      <trkpt lat="44.61401" lon="1.5265">
        <ele>279.43358109029</ele>
        <time>2017-11-06T13:49:12Z</time>
      </trkpt>
      <trkpt lat="44.614" lon="1.52661">
        <ele>279.17746236761</ele>
        <time>2017-11-06T13:49:19Z</time>
      </trkpt>
      <trkpt lat="44.61397" lon="1.52673">
        <ele>279.04976178504</ele>
        <time>2017-11-06T13:49:26Z</time>
      </trkpt>
      <trkpt lat="44.61399" lon="1.52685">
        <ele>278.94879328865</ele>
        <time>2017-11-06T13:49:33Z</time>
      </trkpt>
      <trkpt lat="44.61395" lon="1.52696">
        <ele>278.40114854709</ele>
        <time>2017-11-06T13:49:39Z</time>
      </trkpt>
      <trkpt lat="44.61391" lon="1.52706">
        <ele>278.34108518777</ele>
        <time>2017-11-06T13:49:44Z</time>
      </trkpt>
      <trkpt lat="44.61389" lon="1.52717">
        <ele>278.24089492728</ele>
        <time>2017-11-06T13:49:50Z</time>
      </trkpt>
      <trkpt lat="44.61388" lon="1.52729">
        <ele>278.08585045645</ele>
        <time>2017-11-06T13:50:02Z</time>
      </trkpt>
      <trkpt lat="44.61387" lon="1.52741">
        <ele>277.6563162864</ele>
        <time>2017-11-06T13:50:09Z</time>
      </trkpt>
      <trkpt lat="44.61385" lon="1.52752">
        <ele>277.08540973542</ele>
        <time>2017-11-06T13:50:14Z</time>
      </trkpt>
      <trkpt lat="44.61386" lon="1.52764">
        <ele>276.36902974102</ele>
        <time>2017-11-06T13:50:24Z</time>
      </trkpt>
      <trkpt lat="44.61384" lon="1.52775">
        <ele>276.15434648058</ele>
        <time>2017-11-06T13:50:29Z</time>
      </trkpt>
      <trkpt lat="44.61383" lon="1.52786">
        <ele>275.96699137242</ele>
        <time>2017-11-06T13:50:34Z</time>
      </trkpt>
      <trkpt lat="44.61382" lon="1.52796">
        <ele>275.78390313131</ele>
        <time>2017-11-06T13:50:39Z</time>
      </trkpt>
      <trkpt lat="44.61379" lon="1.52806">
        <ele>275.76081970901</ele>
        <time>2017-11-06T13:50:44Z</time>
      </trkpt>
      <trkpt lat="44.61377" lon="1.52817">
        <ele>275.90765449827</ele>
        <time>2017-11-06T13:50:50Z</time>
      </trkpt>
      <trkpt lat="44.61378" lon="1.52829">
        <ele>276.32589601531</ele>
        <time>2017-11-06T13:50:58Z</time>
      </trkpt>
      <trkpt lat="44.61379" lon="1.5284">
        <ele>275.86189147963</ele>
        <time>2017-11-06T13:51:04Z</time>
      </trkpt>
      <trkpt lat="44.61378" lon="1.52852">
        <ele>275.49712466827</ele>
        <time>2017-11-06T13:51:09Z</time>
      </trkpt>
      <trkpt lat="44.61378" lon="1.52865">
        <ele>275.41253706581</ele>
        <time>2017-11-06T13:51:15Z</time>
      </trkpt>
      <trkpt lat="44.6138" lon="1.52876">
        <ele>275.04978611759</ele>
        <time>2017-11-06T13:51:22Z</time>
      </trkpt>
      <trkpt lat="44.61376" lon="1.52886">
        <ele>274.68090307208</ele>
        <time>2017-11-06T13:51:28Z</time>
      </trkpt>
      <trkpt lat="44.61375" lon="1.52898">
        <ele>274.03295299872</ele>
        <time>2017-11-06T13:51:34Z</time>
      </trkpt>
      <trkpt lat="44.61373" lon="1.52911">
        <ele>273.8453730102</ele>
        <time>2017-11-06T13:51:39Z</time>
      </trkpt>
      <trkpt lat="44.61374" lon="1.52919">
        <ele>273.69333267444</ele>
        <time>2017-11-06T13:51:44Z</time>
      </trkpt>
      <trkpt lat="44.61377" lon="1.52931">
        <ele>273.05256263453</ele>
        <time>2017-11-06T13:51:51Z</time>
      </trkpt>
      <trkpt lat="44.61377" lon="1.52943">
        <ele>273.18455729881</ele>
        <time>2017-11-06T13:51:57Z</time>
      </trkpt>
      <trkpt lat="44.61377" lon="1.52954">
        <ele>273.22506916678</ele>
        <time>2017-11-06T13:52:04Z</time>
      </trkpt>
      <trkpt lat="44.61373" lon="1.52965">
        <ele>273.22316169977</ele>
        <time>2017-11-06T13:52:09Z</time>
      </trkpt>
      <trkpt lat="44.6137" lon="1.52974">
        <ele>273.23819477162</ele>
        <time>2017-11-06T13:52:13Z</time>
      </trkpt>
      <trkpt lat="44.61367" lon="1.52984">
        <ele>273.56105613222</ele>
        <time>2017-11-06T13:52:18Z</time>
      </trkpt>
      <trkpt lat="44.61363" lon="1.52995">
        <ele>274.79322734204</ele>
        <time>2017-11-06T13:52:26Z</time>
      </trkpt>
      <trkpt lat="44.61358" lon="1.53005">
        <ele>275.61149608849</ele>
        <time>2017-11-06T13:52:33Z</time>
      </trkpt>
      <trkpt lat="44.61353" lon="1.53013">
        <ele>275.66833617049</ele>
        <time>2017-11-06T13:52:39Z</time>
      </trkpt>
      <trkpt lat="44.61347" lon="1.53022">
        <ele>275.8292008177</ele>
        <time>2017-11-06T13:52:45Z</time>
      </trkpt>
      <trkpt lat="44.61342" lon="1.5303">
        <ele>276.14533070972</ele>
        <time>2017-11-06T13:52:52Z</time>
      </trkpt>
      <trkpt lat="44.61336" lon="1.53038">
        <ele>276.35944557532</ele>
        <time>2017-11-06T13:52:57Z</time>
      </trkpt>
      <trkpt lat="44.61331" lon="1.53046">
        <ele>276.67925770662</ele>
        <time>2017-11-06T13:53:03Z</time>
      </trkpt>
      <trkpt lat="44.61326" lon="1.53056">
        <ele>276.6885783857</ele>
        <time>2017-11-06T13:53:09Z</time>
      </trkpt>
      <trkpt lat="44.61321" lon="1.53064">
        <ele>276.82400286743</ele>
        <time>2017-11-06T13:53:14Z</time>
      </trkpt>
      <trkpt lat="44.61316" lon="1.53073">
        <ele>277.21950124668</ele>
        <time>2017-11-06T13:53:20Z</time>
      </trkpt>
      <trkpt lat="44.61316" lon="1.53084">
        <ele>277.80165447133</ele>
        <time>2017-11-06T13:53:28Z</time>
      </trkpt>
      <trkpt lat="44.61315" lon="1.53096">
        <ele>278.08764513012</ele>
        <time>2017-11-06T13:53:34Z</time>
      </trkpt>
      <trkpt lat="44.61313" lon="1.53108">
        <ele>278.17648021328</ele>
        <time>2017-11-06T13:53:42Z</time>
      </trkpt>
      <trkpt lat="44.6131" lon="1.53119">
        <ele>277.64540141145</ele>
        <time>2017-11-06T13:53:49Z</time>
      </trkpt>
      <trkpt lat="44.61311" lon="1.53131">
        <ele>277.42143580192</ele>
        <time>2017-11-06T13:53:55Z</time>
      </trkpt>
      <trkpt lat="44.6131" lon="1.53143">
        <ele>276.97849012641</ele>
        <time>2017-11-06T13:54:01Z</time>
      </trkpt>
      <trkpt lat="44.61311" lon="1.53155">
        <ele>275.94471580466</ele>
        <time>2017-11-06T13:54:07Z</time>
      </trkpt>
      <trkpt lat="44.6131" lon="1.53167">
        <ele>275.15802283578</ele>
        <time>2017-11-06T13:54:13Z</time>
      </trkpt>
      <trkpt lat="44.61311" lon="1.53178">
        <ele>274.11606206032</ele>
        <time>2017-11-06T13:54:19Z</time>
      </trkpt>
      <trkpt lat="44.6131" lon="1.5319">
        <ele>273.20557803813</ele>
        <time>2017-11-06T13:54:26Z</time>
      </trkpt>
      <trkpt lat="44.6131" lon="1.53202">
        <ele>272.3061238569</ele>
        <time>2017-11-06T13:54:32Z</time>
      </trkpt>
      <trkpt lat="44.61311" lon="1.53213">
        <ele>271.72058640835</ele>
        <time>2017-11-06T13:54:40Z</time>
      </trkpt>
      <trkpt lat="44.61315" lon="1.53225">
        <ele>270.90310893286</ele>
        <time>2017-11-06T13:54:46Z</time>
      </trkpt>
      <trkpt lat="44.61317" lon="1.53235">
        <ele>270.35906397618</ele>
        <time>2017-11-06T13:54:52Z</time>
      </trkpt>
      <trkpt lat="44.61317" lon="1.53246">
        <ele>269.92641655424</ele>
        <time>2017-11-06T13:54:57Z</time>
      </trkpt>
      <trkpt lat="44.61317" lon="1.53257">
        <ele>269.20157120116</ele>
        <time>2017-11-06T13:55:03Z</time>
      </trkpt>
      <trkpt lat="44.61316" lon="1.53269">
        <ele>268.61654978522</ele>
        <time>2017-11-06T13:55:10Z</time>
      </trkpt>
      <trkpt lat="44.61315" lon="1.53281">
        <ele>268.99562855962</ele>
        <time>2017-11-06T13:55:17Z</time>
      </trkpt>
      <trkpt lat="44.61313" lon="1.53294">
        <ele>269.08487716446</ele>
        <time>2017-11-06T13:55:23Z</time>
      </trkpt>
      <trkpt lat="44.61315" lon="1.53304">
        <ele>269.11785187532</ele>
        <time>2017-11-06T13:55:29Z</time>
      </trkpt>
      <trkpt lat="44.61317" lon="1.53316">
        <ele>268.81202486901</ele>
        <time>2017-11-06T13:55:35Z</time>
      </trkpt>
      <trkpt lat="44.6132" lon="1.53328">
        <ele>268.4422152939</ele>
        <time>2017-11-06T13:55:42Z</time>
      </trkpt>
      <trkpt lat="44.6132" lon="1.5334">
        <ele>268.4411985989</ele>
        <time>2017-11-06T13:55:49Z</time>
      </trkpt>
      <trkpt lat="44.61321" lon="1.53351">
        <ele>268.47651780858</ele>
        <time>2017-11-06T13:55:56Z</time>
      </trkpt>
      <trkpt lat="44.61322" lon="1.53362">
        <ele>268.63487899215</ele>
        <time>2017-11-06T13:56:01Z</time>
      </trkpt>
      <trkpt lat="44.61324" lon="1.53373">
        <ele>268.0743017966</ele>
        <time>2017-11-06T13:56:08Z</time>
      </trkpt>
      <trkpt lat="44.61326" lon="1.53382">
        <ele>268.22612546469</ele>
        <time>2017-11-06T13:56:14Z</time>
      </trkpt>
      <trkpt lat="44.61327" lon="1.53396">
        <ele>267.78149955968</ele>
        <time>2017-11-06T13:56:19Z</time>
      </trkpt>
      <trkpt lat="44.61326" lon="1.53407">
        <ele>267.29826873514</ele>
        <time>2017-11-06T13:56:25Z</time>
      </trkpt>
      <trkpt lat="44.61325" lon="1.53418">
        <ele>266.87806118227</ele>
        <time>2017-11-06T13:56:31Z</time>
      </trkpt>
      <trkpt lat="44.61323" lon="1.5343">
        <ele>266.95732209206</ele>
        <time>2017-11-06T13:56:36Z</time>
      </trkpt>
      <trkpt lat="44.61321" lon="1.53442">
        <ele>267.27038218297</ele>
        <time>2017-11-06T13:56:43Z</time>
      </trkpt>
      <trkpt lat="44.61318" lon="1.53452">
        <ele>267.96398545662</ele>
        <time>2017-11-06T13:56:50Z</time>
      </trkpt>
      <trkpt lat="44.61315" lon="1.53464">
        <ele>268.09447150356</ele>
        <time>2017-11-06T13:56:55Z</time>
      </trkpt>
      <trkpt lat="44.61314" lon="1.53477">
        <ele>267.92433763768</ele>
        <time>2017-11-06T13:57:02Z</time>
      </trkpt>
      <trkpt lat="44.61312" lon="1.53488">
        <ele>267.93007888353</ele>
        <time>2017-11-06T13:57:10Z</time>
      </trkpt>
      <trkpt lat="44.61309" lon="1.535">
        <ele>268.1708869001</ele>
        <time>2017-11-06T13:57:16Z</time>
      </trkpt>
      <trkpt lat="44.61305" lon="1.5351">
        <ele>268.09753519561</ele>
        <time>2017-11-06T13:57:22Z</time>
      </trkpt>
      <trkpt lat="44.61302" lon="1.53521">
        <ele>267.84712521557</ele>
        <time>2017-11-06T13:57:28Z</time>
      </trkpt>
      <trkpt lat="44.61301" lon="1.53532">
        <ele>267.55244896629</ele>
        <time>2017-11-06T13:57:34Z</time>
      </trkpt>
      <trkpt lat="44.613" lon="1.53543">
        <ele>267.0678459804</ele>
        <time>2017-11-06T13:57:39Z</time>
      </trkpt>
      <trkpt lat="44.61299" lon="1.53555">
        <ele>266.28353407813</ele>
        <time>2017-11-06T13:57:47Z</time>
      </trkpt>
      <trkpt lat="44.61297" lon="1.53566">
        <ele>266.31060473187</ele>
        <time>2017-11-06T13:57:53Z</time>
      </trkpt>
      <trkpt lat="44.61296" lon="1.53577">
        <ele>266.11441714705</ele>
        <time>2017-11-06T13:58:01Z</time>
      </trkpt>
      <trkpt lat="44.61297" lon="1.53588">
        <ele>265.4522341164</ele>
        <time>2017-11-06T13:58:08Z</time>
      </trkpt>
      <trkpt lat="44.61296" lon="1.53599">
        <ele>264.49794361808</ele>
        <time>2017-11-06T13:58:13Z</time>
      </trkpt>
      <trkpt lat="44.61297" lon="1.53611">
        <ele>263.81019640855</ele>
        <time>2017-11-06T13:58:18Z</time>
      </trkpt>
      <trkpt lat="44.61297" lon="1.53621">
        <ele>263.01367781129</ele>
        <time>2017-11-06T13:58:25Z</time>
      </trkpt>
      <trkpt lat="44.61297" lon="1.53633">
        <ele>261.63827223762</ele>
        <time>2017-11-06T13:58:33Z</time>
      </trkpt>
      <trkpt lat="44.61297" lon="1.53644">
        <ele>261.22515989742</ele>
        <time>2017-11-06T13:58:39Z</time>
      </trkpt>
      <trkpt lat="44.613" lon="1.53655">
        <ele>260.62999222146</ele>
        <time>2017-11-06T13:58:45Z</time>
      </trkpt>
      <trkpt lat="44.61301" lon="1.53667">
        <ele>259.31015025321</ele>
        <time>2017-11-06T13:58:55Z</time>
      </trkpt>
      <trkpt lat="44.61305" lon="1.53676">
        <ele>258.62618032337</ele>
        <time>2017-11-06T13:59:04Z</time>
      </trkpt>
      <trkpt lat="44.61309" lon="1.53688">
        <ele>258.33977579465</ele>
        <time>2017-11-06T13:59:11Z</time>
      </trkpt>
      <trkpt lat="44.61313" lon="1.53698">
        <ele>258.36219810939</ele>
        <time>2017-11-06T13:59:20Z</time>
      </trkpt>
      <trkpt lat="44.61316" lon="1.5371">
        <ele>258.29760435827</ele>
        <time>2017-11-06T13:59:28Z</time>
      </trkpt>
      <trkpt lat="44.61321" lon="1.53719">
        <ele>258.44583161621</ele>
        <time>2017-11-06T13:59:36Z</time>
      </trkpt>
      <trkpt lat="44.61327" lon="1.53728">
        <ele>259.55679478819</ele>
        <time>2017-11-06T13:59:44Z</time>
      </trkpt>
      <trkpt lat="44.61329" lon="1.5374">
        <ele>259.79818268363</ele>
        <time>2017-11-06T13:59:51Z</time>
      </trkpt>
      <trkpt lat="44.61333" lon="1.53751">
        <ele>259.89469117402</ele>
        <time>2017-11-06T13:59:58Z</time>
      </trkpt>
      <trkpt lat="44.61336" lon="1.53762">
        <ele>259.93725985915</ele>
        <time>2017-11-06T14:00:04Z</time>
      </trkpt>
      <trkpt lat="44.6134" lon="1.53772">
        <ele>259.89181860188</ele>
        <time>2017-11-06T14:00:10Z</time>
      </trkpt>
      <trkpt lat="44.61342" lon="1.53784">
        <ele>259.28018445948</ele>
        <time>2017-11-06T14:00:18Z</time>
      </trkpt>
      <trkpt lat="44.61344" lon="1.53794">
        <ele>259.42034700204</ele>
        <time>2017-11-06T14:00:24Z</time>
      </trkpt>
      <trkpt lat="44.61348" lon="1.53804">
        <ele>259.61439191734</ele>
        <time>2017-11-06T14:00:30Z</time>
      </trkpt>
      <trkpt lat="44.61351" lon="1.53815">
        <ele>259.50737651672</ele>
        <time>2017-11-06T14:00:36Z</time>
      </trkpt>
      <trkpt lat="44.61352" lon="1.53825">
        <ele>259.39808212022</ele>
        <time>2017-11-06T14:00:41Z</time>
      </trkpt>
      <trkpt lat="44.61353" lon="1.53837">
        <ele>259.54211923203</ele>
        <time>2017-11-06T14:00:47Z</time>
      </trkpt>
      <trkpt lat="44.61356" lon="1.53848">
        <ele>259.78896321413</ele>
        <time>2017-11-06T14:00:54Z</time>
      </trkpt>
      <trkpt lat="44.6136" lon="1.53859">
        <ele>259.59790824104</ele>
        <time>2017-11-06T14:01:03Z</time>
      </trkpt>
      <trkpt lat="44.61363" lon="1.53869">
        <ele>259.55565161854</ele>
        <time>2017-11-06T14:01:09Z</time>
      </trkpt>
      <trkpt lat="44.61364" lon="1.53879">
        <ele>260.48010472819</ele>
        <time>2017-11-06T14:01:15Z</time>
      </trkpt>
      <trkpt lat="44.61365" lon="1.53891">
        <ele>260.73135895864</ele>
        <time>2017-11-06T14:01:21Z</time>
      </trkpt>
      <trkpt lat="44.61368" lon="1.53902">
        <ele>261.18785049598</ele>
        <time>2017-11-06T14:01:29Z</time>
      </trkpt>
      <trkpt lat="44.61368" lon="1.53912">
        <ele>260.90570670649</ele>
        <time>2017-11-06T14:01:35Z</time>
      </trkpt>
      <trkpt lat="44.61369" lon="1.53923">
        <ele>260.29657556487</ele>
        <time>2017-11-06T14:01:40Z</time>
      </trkpt>
      <trkpt lat="44.61369" lon="1.53933">
        <ele>259.62982821745</ele>
        <time>2017-11-06T14:01:48Z</time>
      </trkpt>
      <trkpt lat="44.61369" lon="1.53943">
        <ele>259.59991674421</ele>
        <time>2017-11-06T14:01:53Z</time>
      </trkpt>
      <trkpt lat="44.61369" lon="1.53955">
        <ele>259.59315289447</ele>
        <time>2017-11-06T14:01:58Z</time>
      </trkpt>
      <trkpt lat="44.61367" lon="1.53967">
        <ele>258.87038936115</ele>
        <time>2017-11-06T14:02:03Z</time>
      </trkpt>
      <trkpt lat="44.61365" lon="1.53979">
        <ele>258.17470557447</ele>
        <time>2017-11-06T14:02:09Z</time>
      </trkpt>
      <trkpt lat="44.61361" lon="1.53989">
        <ele>258.19339072207</ele>
        <time>2017-11-06T14:02:16Z</time>
      </trkpt>
      <trkpt lat="44.61359" lon="1.53999">
        <ele>258.62783748765</ele>
        <time>2017-11-06T14:02:22Z</time>
      </trkpt>
      <trkpt lat="44.61358" lon="1.5401">
        <ele>258.52247052012</ele>
        <time>2017-11-06T14:02:29Z</time>
      </trkpt>
      <trkpt lat="44.61358" lon="1.54023">
        <ele>258.05945702244</ele>
        <time>2017-11-06T14:02:36Z</time>
      </trkpt>
      <trkpt lat="44.61358" lon="1.54035">
        <ele>258.02709564349</ele>
        <time>2017-11-06T14:02:43Z</time>
      </trkpt>
      <trkpt lat="44.61357" lon="1.54047">
        <ele>257.75219017561</ele>
        <time>2017-11-06T14:02:50Z</time>
      </trkpt>
      <trkpt lat="44.61357" lon="1.54059">
        <ele>258.04888529556</ele>
        <time>2017-11-06T14:02:57Z</time>
      </trkpt>
      <trkpt lat="44.61357" lon="1.54071">
        <ele>257.8124691761</ele>
        <time>2017-11-06T14:03:05Z</time>
      </trkpt>
      <trkpt lat="44.61358" lon="1.54082">
        <ele>257.67603428501</ele>
        <time>2017-11-06T14:03:13Z</time>
      </trkpt>
      <trkpt lat="44.61356" lon="1.54096">
        <ele>257.32779634412</ele>
        <time>2017-11-06T14:03:18Z</time>
      </trkpt>
      <trkpt lat="44.61354" lon="1.54108">
        <ele>256.29057756784</ele>
        <time>2017-11-06T14:03:24Z</time>
      </trkpt>
      <trkpt lat="44.61351" lon="1.54119">
        <ele>255.63115985208</ele>
        <time>2017-11-06T14:03:31Z</time>
      </trkpt>
      <trkpt lat="44.61347" lon="1.5413">
        <ele>255.87587761512</ele>
        <time>2017-11-06T14:03:38Z</time>
      </trkpt>
      <trkpt lat="44.61345" lon="1.54141">
        <ele>255.66979848951</ele>
        <time>2017-11-06T14:03:44Z</time>
      </trkpt>
      <trkpt lat="44.61343" lon="1.54153">
        <ele>256.32236889509</ele>
        <time>2017-11-06T14:03:50Z</time>
      </trkpt>
      <trkpt lat="44.61339" lon="1.54164">
        <ele>256.56754746118</ele>
        <time>2017-11-06T14:03:58Z</time>
      </trkpt>
      <trkpt lat="44.61335" lon="1.54175">
        <ele>256.45255823131</ele>
        <time>2017-11-06T14:04:04Z</time>
      </trkpt>
      <trkpt lat="44.61331" lon="1.54185">
        <ele>256.09552732821</ele>
        <time>2017-11-06T14:04:10Z</time>
      </trkpt>
      <trkpt lat="44.61329" lon="1.54195">
        <ele>255.92022764604</ele>
        <time>2017-11-06T14:04:15Z</time>
      </trkpt>
      <trkpt lat="44.61326" lon="1.54205">
        <ele>255.51204217135</ele>
        <time>2017-11-06T14:04:21Z</time>
      </trkpt>
      <trkpt lat="44.61323" lon="1.54216">
        <ele>255.3683767828</ele>
        <time>2017-11-06T14:04:27Z</time>
      </trkpt>
      <trkpt lat="44.61321" lon="1.54228">
        <ele>255.08180797067</ele>
        <time>2017-11-06T14:04:36Z</time>
      </trkpt>
      <trkpt lat="44.61319" lon="1.54239">
        <ele>255.23421438942</ele>
        <time>2017-11-06T14:04:42Z</time>
      </trkpt>
      <trkpt lat="44.61318" lon="1.54251">
        <ele>254.73530986205</ele>
        <time>2017-11-06T14:04:48Z</time>
      </trkpt>
      <trkpt lat="44.61315" lon="1.54261">
        <ele>254.91077480012</ele>
        <time>2017-11-06T14:04:53Z</time>
      </trkpt>
      <trkpt lat="44.61312" lon="1.54273">
        <ele>255.16685480434</ele>
        <time>2017-11-06T14:04:59Z</time>
      </trkpt>
      <trkpt lat="44.61308" lon="1.54282">
        <ele>255.34720648644</ele>
        <time>2017-11-06T14:05:06Z</time>
      </trkpt>
      <trkpt lat="44.61304" lon="1.54292">
        <ele>255.66263857754</ele>
        <time>2017-11-06T14:05:11Z</time>
      </trkpt>
      <trkpt lat="44.61299" lon="1.54302">
        <ele>256.07384989605</ele>
        <time>2017-11-06T14:05:19Z</time>
      </trkpt>
      <trkpt lat="44.61296" lon="1.54313">
        <ele>256.16309301488</ele>
        <time>2017-11-06T14:05:25Z</time>
      </trkpt>
      <trkpt lat="44.61294" lon="1.54325">
        <ele>256.23705160973</ele>
        <time>2017-11-06T14:05:33Z</time>
      </trkpt>
      <trkpt lat="44.61291" lon="1.54335">
        <ele>256.13278655549</ele>
        <time>2017-11-06T14:05:39Z</time>
      </trkpt>
      <trkpt lat="44.6129" lon="1.54347">
        <ele>256.33256571442</ele>
        <time>2017-11-06T14:05:46Z</time>
      </trkpt>
      <trkpt lat="44.61288" lon="1.54357">
        <ele>256.81874066813</ele>
        <time>2017-11-06T14:05:52Z</time>
      </trkpt>
      <trkpt lat="44.61286" lon="1.54369">
        <ele>256.90087003958</ele>
        <time>2017-11-06T14:05:59Z</time>
      </trkpt>
      <trkpt lat="44.61283" lon="1.54379">
        <ele>257.1659764807</ele>
        <time>2017-11-06T14:06:04Z</time>
      </trkpt>
      <trkpt lat="44.6128" lon="1.54391">
        <ele>257.15804278529</ele>
        <time>2017-11-06T14:06:11Z</time>
      </trkpt>
      <trkpt lat="44.61278" lon="1.54401">
        <ele>257.28446951159</ele>
        <time>2017-11-06T14:06:18Z</time>
      </trkpt>
      <trkpt lat="44.61278" lon="1.54413">
        <ele>257.40941086313</ele>
        <time>2017-11-06T14:06:23Z</time>
      </trkpt>
      <trkpt lat="44.61277" lon="1.54424">
        <ele>257.02126359887</ele>
        <time>2017-11-06T14:06:30Z</time>
      </trkpt>
      <trkpt lat="44.61278" lon="1.54436">
        <ele>257.10435378332</ele>
        <time>2017-11-06T14:06:37Z</time>
      </trkpt>
      <trkpt lat="44.61277" lon="1.54448">
        <ele>256.97435957809</ele>
        <time>2017-11-06T14:06:44Z</time>
      </trkpt>
      <trkpt lat="44.61277" lon="1.54459">
        <ele>256.91935959262</ele>
        <time>2017-11-06T14:06:50Z</time>
      </trkpt>
      <trkpt lat="44.61276" lon="1.54471">
        <ele>257.13361269291</ele>
        <time>2017-11-06T14:06:57Z</time>
      </trkpt>
      <trkpt lat="44.61275" lon="1.54483">
        <ele>257.63387549302</ele>
        <time>2017-11-06T14:07:04Z</time>
      </trkpt>
      <trkpt lat="44.61274" lon="1.54493">
        <ele>257.66043351253</ele>
        <time>2017-11-06T14:07:10Z</time>
      </trkpt>
      <trkpt lat="44.61272" lon="1.54505">
        <ele>257.93495284603</ele>
        <time>2017-11-06T14:07:16Z</time>
      </trkpt>
      <trkpt lat="44.6127" lon="1.54516">
        <ele>257.5579506618</ele>
        <time>2017-11-06T14:07:23Z</time>
      </trkpt>
      <trkpt lat="44.61266" lon="1.54526">
        <ele>257.09246299795</ele>
        <time>2017-11-06T14:07:29Z</time>
      </trkpt>
      <trkpt lat="44.6126" lon="1.54534">
        <ele>256.10475175745</ele>
        <time>2017-11-06T14:07:38Z</time>
      </trkpt>
      <trkpt lat="44.61252" lon="1.54539">
        <ele>255.86556621304</ele>
        <time>2017-11-06T14:07:44Z</time>
      </trkpt>
      <trkpt lat="44.61246" lon="1.54546">
        <ele>255.74700004854</ele>
        <time>2017-11-06T14:07:50Z</time>
      </trkpt>
      <trkpt lat="44.61239" lon="1.54552">
        <ele>255.80540464681</ele>
        <time>2017-11-06T14:07:58Z</time>
      </trkpt>
      <trkpt lat="44.61231" lon="1.54557">
        <ele>255.88815560011</ele>
        <time>2017-11-06T14:08:05Z</time>
      </trkpt>
      <trkpt lat="44.61223" lon="1.5456">
        <ele>255.47563038782</ele>
        <time>2017-11-06T14:08:10Z</time>
      </trkpt>
      <trkpt lat="44.61215" lon="1.54565">
        <ele>255.34434423461</ele>
        <time>2017-11-06T14:08:16Z</time>
      </trkpt>
      <trkpt lat="44.61209" lon="1.54572">
        <ele>255.20156402442</ele>
        <time>2017-11-06T14:08:22Z</time>
      </trkpt>
      <trkpt lat="44.61202" lon="1.54579">
        <ele>255.61530088405</ele>
        <time>2017-11-06T14:08:29Z</time>
      </trkpt>
      <trkpt lat="44.61196" lon="1.54586">
        <ele>255.91315810619</ele>
        <time>2017-11-06T14:08:35Z</time>
      </trkpt>
      <trkpt lat="44.61191" lon="1.54595">
        <ele>256.61402951722</ele>
        <time>2017-11-06T14:08:42Z</time>
      </trkpt>
      <trkpt lat="44.61184" lon="1.54603">
        <ele>256.29963082343</ele>
        <time>2017-11-06T14:08:49Z</time>
      </trkpt>
      <trkpt lat="44.61179" lon="1.54609">
        <ele>255.85682781227</ele>
        <time>2017-11-06T14:08:55Z</time>
      </trkpt>
      <trkpt lat="44.61173" lon="1.54616">
        <ele>255.65336505482</ele>
        <time>2017-11-06T14:09:00Z</time>
      </trkpt>
      <trkpt lat="44.61166" lon="1.54622">
        <ele>255.76470062874</ele>
        <time>2017-11-06T14:09:06Z</time>
      </trkpt>
      <trkpt lat="44.61159" lon="1.5463">
        <ele>255.69296779526</ele>
        <time>2017-11-06T14:09:13Z</time>
      </trkpt>
      <trkpt lat="44.61154" lon="1.54637">
        <ele>255.94006661602</ele>
        <time>2017-11-06T14:09:18Z</time>
      </trkpt>
      <trkpt lat="44.61147" lon="1.54644">
        <ele>256.21956703162</ele>
        <time>2017-11-06T14:09:25Z</time>
      </trkpt>
      <trkpt lat="44.61139" lon="1.54649">
        <ele>256.32522094823</ele>
        <time>2017-11-06T14:09:31Z</time>
      </trkpt>
      <trkpt lat="44.61133" lon="1.54655">
        <ele>256.26717275005</ele>
        <time>2017-11-06T14:09:38Z</time>
      </trkpt>
      <trkpt lat="44.61126" lon="1.54665">
        <ele>256.12690912354</ele>
        <time>2017-11-06T14:09:43Z</time>
      </trkpt>
      <trkpt lat="44.6112" lon="1.54673">
        <ele>256.06377219357</ele>
        <time>2017-11-06T14:09:54Z</time>
      </trkpt>
      <trkpt lat="44.61112" lon="1.54678">
        <ele>255.77945821408</ele>
        <time>2017-11-06T14:09:59Z</time>
      </trkpt>
      <trkpt lat="44.61104" lon="1.54683">
        <ele>255.38962278985</ele>
        <time>2017-11-06T14:10:06Z</time>
      </trkpt>
      <trkpt lat="44.61097" lon="1.54686">
        <ele>255.3768148644</ele>
        <time>2017-11-06T14:10:12Z</time>
      </trkpt>
      <trkpt lat="44.61089" lon="1.5469">
        <ele>254.40261601455</ele>
        <time>2017-11-06T14:10:18Z</time>
      </trkpt>
      <trkpt lat="44.61082" lon="1.54697">
        <ele>252.93100900621</ele>
        <time>2017-11-06T14:10:27Z</time>
      </trkpt>
      <trkpt lat="44.61076" lon="1.54701">
        <ele>252.62921782268</ele>
        <time>2017-11-06T14:10:32Z</time>
      </trkpt>
      <trkpt lat="44.61069" lon="1.54708">
        <ele>252.38372966886</ele>
        <time>2017-11-06T14:10:38Z</time>
      </trkpt>
      <trkpt lat="44.61062" lon="1.54714">
        <ele>252.2692102977</ele>
        <time>2017-11-06T14:10:44Z</time>
      </trkpt>
      <trkpt lat="44.61055" lon="1.54722">
        <ele>251.84020333864</ele>
        <time>2017-11-06T14:10:52Z</time>
      </trkpt>
      <trkpt lat="44.61049" lon="1.54728">
        <ele>251.63068337127</ele>
        <time>2017-11-06T14:11:01Z</time>
      </trkpt>
      <trkpt lat="44.61041" lon="1.54732">
        <ele>252.08545529909</ele>
        <time>2017-11-06T14:11:06Z</time>
      </trkpt>
      <trkpt lat="44.61034" lon="1.54735">
        <ele>252.29291665276</ele>
        <time>2017-11-06T14:11:11Z</time>
      </trkpt>
      <trkpt lat="44.61027" lon="1.54742">
        <ele>252.29258830983</ele>
        <time>2017-11-06T14:11:19Z</time>
      </trkpt>
      <trkpt lat="44.61019" lon="1.54748">
        <ele>252.34087601191</ele>
        <time>2017-11-06T14:11:25Z</time>
      </trkpt>
      <trkpt lat="44.61014" lon="1.54754">
        <ele>252.33736103586</ele>
        <time>2017-11-06T14:11:29Z</time>
      </trkpt>
      <trkpt lat="44.61006" lon="1.5476">
        <ele>252.48170941057</ele>
        <time>2017-11-06T14:11:35Z</time>
      </trkpt>
      <trkpt lat="44.60998" lon="1.54765">
        <ele>252.90569881431</ele>
        <time>2017-11-06T14:11:41Z</time>
      </trkpt>
      <trkpt lat="44.6099" lon="1.54769">
        <ele>253.0053011885</ele>
        <time>2017-11-06T14:11:46Z</time>
      </trkpt>
      <trkpt lat="44.60983" lon="1.54774">
        <ele>252.84807434169</ele>
        <time>2017-11-06T14:11:52Z</time>
      </trkpt>
      <trkpt lat="44.60976" lon="1.54781">
        <ele>252.25102184272</ele>
        <time>2017-11-06T14:12:01Z</time>
      </trkpt>
      <trkpt lat="44.60968" lon="1.54784">
        <ele>251.79018801471</ele>
        <time>2017-11-06T14:12:10Z</time>
      </trkpt>
      <trkpt lat="44.6096" lon="1.5479">
        <ele>252.07551970794</ele>
        <time>2017-11-06T14:12:15Z</time>
      </trkpt>
      <trkpt lat="44.60952" lon="1.54796">
        <ele>252.56838318256</ele>
        <time>2017-11-06T14:12:21Z</time>
      </trkpt>
      <trkpt lat="44.60946" lon="1.54801">
        <ele>252.40733242137</ele>
        <time>2017-11-06T14:12:26Z</time>
      </trkpt>
      <trkpt lat="44.60939" lon="1.54806">
        <ele>252.39011482752</ele>
        <time>2017-11-06T14:12:32Z</time>
      </trkpt>
      <trkpt lat="44.60931" lon="1.54811">
        <ele>252.4998457206</ele>
        <time>2017-11-06T14:12:41Z</time>
      </trkpt>
      <trkpt lat="44.60925" lon="1.54808">
        <ele>251.89590931251</ele>
        <time>2017-11-06T14:12:52Z</time>
      </trkpt>
      <trkpt lat="44.60921" lon="1.548">
        <ele>250.05330489936</ele>
        <time>2017-11-06T14:13:06Z</time>
      </trkpt>
      <trkpt lat="44.60923" lon="1.54787">
        <ele>249.33565836173</ele>
        <time>2017-11-06T14:13:10Z</time>
      </trkpt>
      <trkpt lat="44.60925" lon="1.54775">
        <ele>247.91807922958</ele>
        <time>2017-11-06T14:13:21Z</time>
      </trkpt>
      <trkpt lat="44.60922" lon="1.54763">
        <ele>248.05913485953</ele>
        <time>2017-11-06T14:13:41Z</time>
      </trkpt>
      <trkpt lat="44.60921" lon="1.54751">
        <ele>251.91666583233</ele>
        <time>2017-11-06T14:15:07Z</time>
      </trkpt>
      <trkpt lat="44.60923" lon="1.54757">
        <ele>251.46661564353</ele>
        <time>2017-11-06T14:15:51Z</time>
      </trkpt>
      <trkpt lat="44.60938" lon="1.54688">
        <ele>246.901616273</ele>
        <time>2017-11-06T14:18:36Z</time>
      </trkpt>
      <trkpt lat="44.60943" lon="1.54677">
        <ele>247.02267410471</ele>
        <time>2017-11-06T14:18:42Z</time>
      </trkpt>
      <trkpt lat="44.60944" lon="1.54667">
        <ele>247.41105377129</ele>
        <time>2017-11-06T14:18:48Z</time>
      </trkpt>
      <trkpt lat="44.60944" lon="1.54655">
        <ele>248.02278299872</ele>
        <time>2017-11-06T14:18:53Z</time>
      </trkpt>
      <trkpt lat="44.60948" lon="1.54644">
        <ele>248.46424797238</ele>
        <time>2017-11-06T14:19:00Z</time>
      </trkpt>
      <trkpt lat="44.60952" lon="1.54634">
        <ele>248.41811110116</ele>
        <time>2017-11-06T14:19:07Z</time>
      </trkpt>
      <trkpt lat="44.60959" lon="1.54626">
        <ele>248.47789808684</ele>
        <time>2017-11-06T14:19:12Z</time>
      </trkpt>
      <trkpt lat="44.60966" lon="1.5462">
        <ele>248.25220359533</ele>
        <time>2017-11-06T14:19:18Z</time>
      </trkpt>
      <trkpt lat="44.60973" lon="1.54614">
        <ele>249.340980313</ele>
        <time>2017-11-06T14:19:26Z</time>
      </trkpt>
      <trkpt lat="44.60977" lon="1.54605">
        <ele>250.32529637817</ele>
        <time>2017-11-06T14:19:38Z</time>
      </trkpt>
      <trkpt lat="44.60979" lon="1.54593">
        <ele>251.19289010451</ele>
        <time>2017-11-06T14:19:44Z</time>
      </trkpt>
      <trkpt lat="44.60986" lon="1.54588">
        <ele>251.43950536431</ele>
        <time>2017-11-06T14:19:51Z</time>
      </trkpt>
      <trkpt lat="44.60991" lon="1.54579">
        <ele>251.42628978962</ele>
        <time>2017-11-06T14:19:57Z</time>
      </trkpt>
      <trkpt lat="44.60998" lon="1.54572">
        <ele>251.36828064511</ele>
        <time>2017-11-06T14:20:04Z</time>
      </trkpt>
      <trkpt lat="44.61002" lon="1.54564">
        <ele>251.26707987906</ele>
        <time>2017-11-06T14:20:09Z</time>
      </trkpt>
      <trkpt lat="44.61008" lon="1.54555">
        <ele>251.26845186965</ele>
        <time>2017-11-06T14:20:16Z</time>
      </trkpt>
      <trkpt lat="44.61015" lon="1.54548">
        <ele>252.50107482953</ele>
        <time>2017-11-06T14:20:25Z</time>
      </trkpt>
      <trkpt lat="44.61022" lon="1.54542">
        <ele>253.03580462665</ele>
        <time>2017-11-06T14:20:31Z</time>
      </trkpt>
      <trkpt lat="44.61028" lon="1.54533">
        <ele>253.3096031245</ele>
        <time>2017-11-06T14:20:37Z</time>
      </trkpt>
      <trkpt lat="44.61031" lon="1.54522">
        <ele>253.10864684923</ele>
        <time>2017-11-06T14:20:43Z</time>
      </trkpt>
      <trkpt lat="44.61037" lon="1.54513">
        <ele>252.11686898196</ele>
        <time>2017-11-06T14:20:51Z</time>
      </trkpt>
      <trkpt lat="44.61044" lon="1.5451">
        <ele>251.61857714686</ele>
        <time>2017-11-06T14:20:56Z</time>
      </trkpt>
      <trkpt lat="44.61052" lon="1.54509">
        <ele>251.31976426531</ele>
        <time>2017-11-06T14:21:01Z</time>
      </trkpt>
      <trkpt lat="44.6106" lon="1.54505">
        <ele>251.92831855524</ele>
        <time>2017-11-06T14:21:10Z</time>
      </trkpt>
      <trkpt lat="44.61068" lon="1.54502">
        <ele>252.94920400745</ele>
        <time>2017-11-06T14:21:17Z</time>
      </trkpt>
      <trkpt lat="44.61076" lon="1.54496">
        <ele>253.99635758834</ele>
        <time>2017-11-06T14:21:25Z</time>
      </trkpt>
      <trkpt lat="44.61083" lon="1.54492">
        <ele>254.20456138431</ele>
        <time>2017-11-06T14:21:32Z</time>
      </trkpt>
      <trkpt lat="44.61091" lon="1.54486">
        <ele>255.18514911375</ele>
        <time>2017-11-06T14:21:39Z</time>
      </trkpt>
      <trkpt lat="44.61096" lon="1.54478">
        <ele>255.94752720752</ele>
        <time>2017-11-06T14:21:45Z</time>
      </trkpt>
      <trkpt lat="44.61101" lon="1.54468">
        <ele>257.48230926939</ele>
        <time>2017-11-06T14:21:58Z</time>
      </trkpt>
      <trkpt lat="44.61104" lon="1.54453">
        <ele>258.03038215387</ele>
        <time>2017-11-06T14:22:02Z</time>
      </trkpt>
      <trkpt lat="44.61109" lon="1.54444">
        <ele>258.5710347204</ele>
        <time>2017-11-06T14:22:07Z</time>
      </trkpt>
      <trkpt lat="44.61112" lon="1.54434">
        <ele>259.10896011893</ele>
        <time>2017-11-06T14:22:16Z</time>
      </trkpt>
      <trkpt lat="44.61119" lon="1.54425">
        <ele>259.2660696312</ele>
        <time>2017-11-06T14:22:21Z</time>
      </trkpt>
      <trkpt lat="44.61124" lon="1.54414">
        <ele>258.917621563</ele>
        <time>2017-11-06T14:22:29Z</time>
      </trkpt>
      <trkpt lat="44.61129" lon="1.54404">
        <ele>259.14683850328</ele>
        <time>2017-11-06T14:22:36Z</time>
      </trkpt>
      <trkpt lat="44.61134" lon="1.54393">
        <ele>259.60861611397</ele>
        <time>2017-11-06T14:22:44Z</time>
      </trkpt>
      <trkpt lat="44.61138" lon="1.54382">
        <ele>260.46198789992</ele>
        <time>2017-11-06T14:22:52Z</time>
      </trkpt>
      <trkpt lat="44.61139" lon="1.54372">
        <ele>261.56858860599</ele>
        <time>2017-11-06T14:22:59Z</time>
      </trkpt>
      <trkpt lat="44.61145" lon="1.54363">
        <ele>262.41761448827</ele>
        <time>2017-11-06T14:23:04Z</time>
      </trkpt>
      <trkpt lat="44.6115" lon="1.54354">
        <ele>263.26304382066</ele>
        <time>2017-11-06T14:23:09Z</time>
      </trkpt>
      <trkpt lat="44.61156" lon="1.54345">
        <ele>264.40875459411</ele>
        <time>2017-11-06T14:23:16Z</time>
      </trkpt>
      <trkpt lat="44.61161" lon="1.54335">
        <ele>265.70233628528</ele>
        <time>2017-11-06T14:23:23Z</time>
      </trkpt>
      <trkpt lat="44.61164" lon="1.54325">
        <ele>267.01219795295</ele>
        <time>2017-11-06T14:23:30Z</time>
      </trkpt>
      <trkpt lat="44.61169" lon="1.54316">
        <ele>266.99616405512</ele>
        <time>2017-11-06T14:23:37Z</time>
      </trkpt>
      <trkpt lat="44.61174" lon="1.54311">
        <ele>266.80968412058</ele>
        <time>2017-11-06T14:23:41Z</time>
      </trkpt>
      <trkpt lat="44.61181" lon="1.54304">
        <ele>266.56331255519</ele>
        <time>2017-11-06T14:23:46Z</time>
      </trkpt>
      <trkpt lat="44.61186" lon="1.54294">
        <ele>266.40861305292</ele>
        <time>2017-11-06T14:23:53Z</time>
      </trkpt>
      <trkpt lat="44.61192" lon="1.54269">
        <ele>266.38797701346</ele>
        <time>2017-11-06T14:24:03Z</time>
      </trkpt>
      <trkpt lat="44.61199" lon="1.54261">
        <ele>265.868749024</ele>
        <time>2017-11-06T14:24:20Z</time>
      </trkpt>
      <trkpt lat="44.61203" lon="1.5425">
        <ele>266.62301168262</ele>
        <time>2017-11-06T14:24:30Z</time>
      </trkpt>
      <trkpt lat="44.61206" lon="1.54241">
        <ele>266.79426768286</ele>
        <time>2017-11-06T14:24:35Z</time>
      </trkpt>
      <trkpt lat="44.61211" lon="1.5423">
        <ele>266.72091209633</ele>
        <time>2017-11-06T14:24:42Z</time>
      </trkpt>
      <trkpt lat="44.61213" lon="1.54219">
        <ele>266.39302223544</ele>
        <time>2017-11-06T14:24:50Z</time>
      </trkpt>
      <trkpt lat="44.61216" lon="1.54211">
        <ele>266.33485528208</ele>
        <time>2017-11-06T14:24:56Z</time>
      </trkpt>
      <trkpt lat="44.61224" lon="1.542">
        <ele>266.75958050304</ele>
        <time>2017-11-06T14:25:01Z</time>
      </trkpt>
      <trkpt lat="44.61226" lon="1.5419">
        <ele>267.44901402825</ele>
        <time>2017-11-06T14:25:10Z</time>
      </trkpt>
      <trkpt lat="44.61229" lon="1.54175">
        <ele>267.53150124106</ele>
        <time>2017-11-06T14:25:25Z</time>
      </trkpt>
      <trkpt lat="44.61222" lon="1.54167">
        <ele>267.56456418027</ele>
        <time>2017-11-06T14:25:29Z</time>
      </trkpt>
      <trkpt lat="44.61221" lon="1.54157">
        <ele>267.32535188331</ele>
        <time>2017-11-06T14:25:34Z</time>
      </trkpt>
      <trkpt lat="44.61237" lon="1.54143">
        <ele>266.62042511267</ele>
        <time>2017-11-06T14:25:38Z</time>
      </trkpt>
      <trkpt lat="44.61241" lon="1.54137">
        <ele>266.12223142196</ele>
        <time>2017-11-06T14:25:43Z</time>
      </trkpt>
      <trkpt lat="44.61246" lon="1.54128">
        <ele>265.33392132764</ele>
        <time>2017-11-06T14:25:50Z</time>
      </trkpt>
      <trkpt lat="44.61249" lon="1.54117">
        <ele>264.62754032865</ele>
        <time>2017-11-06T14:25:57Z</time>
      </trkpt>
      <trkpt lat="44.61252" lon="1.54107">
        <ele>264.44698202218</ele>
        <time>2017-11-06T14:26:05Z</time>
      </trkpt>
      <trkpt lat="44.61255" lon="1.54095">
        <ele>264.49669650463</ele>
        <time>2017-11-06T14:26:12Z</time>
      </trkpt>
      <trkpt lat="44.61255" lon="1.54084">
        <ele>263.94228068344</ele>
        <time>2017-11-06T14:26:23Z</time>
      </trkpt>
      <trkpt lat="44.61257" lon="1.54072">
        <ele>263.32834113863</ele>
        <time>2017-11-06T14:26:30Z</time>
      </trkpt>
      <trkpt lat="44.6126" lon="1.54062">
        <ele>263.89204928624</ele>
        <time>2017-11-06T14:26:36Z</time>
      </trkpt>
      <trkpt lat="44.6126" lon="1.5405">
        <ele>264.35453322162</ele>
        <time>2017-11-06T14:26:44Z</time>
      </trkpt>
      <trkpt lat="44.61261" lon="1.54038">
        <ele>264.3072879932</ele>
        <time>2017-11-06T14:26:50Z</time>
      </trkpt>
      <trkpt lat="44.61263" lon="1.54027">
        <ele>264.5406666773</ele>
        <time>2017-11-06T14:27:02Z</time>
      </trkpt>
      <trkpt lat="44.61266" lon="1.54017">
        <ele>264.1363590682</ele>
        <time>2017-11-06T14:27:10Z</time>
      </trkpt>
      <trkpt lat="44.61267" lon="1.54006">
        <ele>264.66509530732</ele>
        <time>2017-11-06T14:27:23Z</time>
      </trkpt>
      <trkpt lat="44.61268" lon="1.53997">
        <ele>264.92856064857</ele>
        <time>2017-11-06T14:27:28Z</time>
      </trkpt>
      <trkpt lat="44.61267" lon="1.53985">
        <ele>265.11303849587</ele>
        <time>2017-11-06T14:27:33Z</time>
      </trkpt>
      <trkpt lat="44.61263" lon="1.53976">
        <ele>265.48692944372</ele>
        <time>2017-11-06T14:27:39Z</time>
      </trkpt>
      <trkpt lat="44.61262" lon="1.53964">
        <ele>265.63180481936</ele>
        <time>2017-11-06T14:27:44Z</time>
      </trkpt>
      <trkpt lat="44.61263" lon="1.53954">
        <ele>265.61045546859</ele>
        <time>2017-11-06T14:27:48Z</time>
      </trkpt>
      <trkpt lat="44.61265" lon="1.53945">
        <ele>265.65178982374</ele>
        <time>2017-11-06T14:27:53Z</time>
      </trkpt>
      <trkpt lat="44.61263" lon="1.53934">
        <ele>266.74460002032</ele>
        <time>2017-11-06T14:28:05Z</time>
      </trkpt>
      <trkpt lat="44.61261" lon="1.53924">
        <ele>267.29953182159</ele>
        <time>2017-11-06T14:28:10Z</time>
      </trkpt>
      <trkpt lat="44.61261" lon="1.53911">
        <ele>268.49753695398</ele>
        <time>2017-11-06T14:28:17Z</time>
      </trkpt>
      <trkpt lat="44.61262" lon="1.539">
        <ele>270.07571189775</ele>
        <time>2017-11-06T14:28:24Z</time>
      </trkpt>
      <trkpt lat="44.61263" lon="1.5389">
        <ele>271.20048648344</ele>
        <time>2017-11-06T14:28:30Z</time>
      </trkpt>
      <trkpt lat="44.61262" lon="1.53878">
        <ele>271.63189895149</ele>
        <time>2017-11-06T14:28:37Z</time>
      </trkpt>
      <trkpt lat="44.61258" lon="1.53867">
        <ele>271.79319860371</ele>
        <time>2017-11-06T14:28:43Z</time>
      </trkpt>
      <trkpt lat="44.61255" lon="1.53856">
        <ele>272.12238035712</ele>
        <time>2017-11-06T14:28:50Z</time>
      </trkpt>
      <trkpt lat="44.61256" lon="1.53844">
        <ele>272.53564061984</ele>
        <time>2017-11-06T14:28:54Z</time>
      </trkpt>
      <trkpt lat="44.61251" lon="1.53835">
        <ele>273.34233783177</ele>
        <time>2017-11-06T14:29:01Z</time>
      </trkpt>
      <trkpt lat="44.61248" lon="1.53825">
        <ele>274.2716958025</ele>
        <time>2017-11-06T14:29:06Z</time>
      </trkpt>
      <trkpt lat="44.61247" lon="1.53813">
        <ele>272.27328436076</ele>
        <time>2017-11-06T14:29:20Z</time>
      </trkpt>
      <trkpt lat="44.61243" lon="1.53803">
        <ele>271.08721461647</ele>
        <time>2017-11-06T14:29:28Z</time>
      </trkpt>
      <trkpt lat="44.61243" lon="1.53792">
        <ele>270.37356383091</ele>
        <time>2017-11-06T14:29:38Z</time>
      </trkpt>
      <trkpt lat="44.61246" lon="1.53776">
        <ele>269.09555759759</ele>
        <time>2017-11-06T14:29:43Z</time>
      </trkpt>
      <trkpt lat="44.61245" lon="1.53764">
        <ele>266.44058308752</ele>
        <time>2017-11-06T14:29:57Z</time>
      </trkpt>
      <trkpt lat="44.61242" lon="1.53753">
        <ele>266.33921682291</ele>
        <time>2017-11-06T14:30:02Z</time>
      </trkpt>
      <trkpt lat="44.61242" lon="1.53741">
        <ele>266.52764233384</ele>
        <time>2017-11-06T14:30:08Z</time>
      </trkpt>
      <trkpt lat="44.61243" lon="1.53732">
        <ele>266.93214869194</ele>
        <time>2017-11-06T14:30:13Z</time>
      </trkpt>
      <trkpt lat="44.6124" lon="1.53717">
        <ele>267.57683186301</ele>
        <time>2017-11-06T14:30:18Z</time>
      </trkpt>
      <trkpt lat="44.6124" lon="1.53706">
        <ele>269.09137749053</ele>
        <time>2017-11-06T14:30:26Z</time>
      </trkpt>
      <trkpt lat="44.61241" lon="1.53695">
        <ele>269.36197721247</ele>
        <time>2017-11-06T14:30:32Z</time>
      </trkpt>
      <trkpt lat="44.61235" lon="1.53683">
        <ele>269.0853465535</ele>
        <time>2017-11-06T14:30:37Z</time>
      </trkpt>
      <trkpt lat="44.61228" lon="1.53681">
        <ele>268.12563542775</ele>
        <time>2017-11-06T14:30:45Z</time>
      </trkpt>
      <trkpt lat="44.6122" lon="1.53676">
        <ele>266.81032202086</ele>
        <time>2017-11-06T14:31:01Z</time>
      </trkpt>
      <trkpt lat="44.61215" lon="1.53667">
        <ele>266.82647940034</ele>
        <time>2017-11-06T14:31:09Z</time>
      </trkpt>
      <trkpt lat="44.61214" lon="1.5366">
        <ele>267.24418352687</ele>
        <time>2017-11-06T14:31:14Z</time>
      </trkpt>
      <trkpt lat="44.61222" lon="1.53637">
        <ele>267.53024495576</ele>
        <time>2017-11-06T14:31:19Z</time>
      </trkpt>
      <trkpt lat="44.61222" lon="1.53627">
        <ele>267.4658455687</ele>
        <time>2017-11-06T14:31:25Z</time>
      </trkpt>
      <trkpt lat="44.6122" lon="1.53617">
        <ele>269.26657427951</ele>
        <time>2017-11-06T14:31:37Z</time>
      </trkpt>
      <trkpt lat="44.61222" lon="1.53605">
        <ele>271.68113756899</ele>
        <time>2017-11-06T14:32:16Z</time>
      </trkpt>
      <trkpt lat="44.61219" lon="1.53595">
        <ele>266.61123554436</ele>
        <time>2017-11-06T14:33:28Z</time>
      </trkpt>
      <trkpt lat="44.61217" lon="1.53586">
        <ele>266.56407899806</ele>
        <time>2017-11-06T14:33:33Z</time>
      </trkpt>
      <trkpt lat="44.61209" lon="1.53573">
        <ele>265.84678182163</ele>
        <time>2017-11-06T14:33:38Z</time>
      </trkpt>
      <trkpt lat="44.61205" lon="1.53562">
        <ele>265.6395690096</ele>
        <time>2017-11-06T14:33:47Z</time>
      </trkpt>
      <trkpt lat="44.61206" lon="1.5355">
        <ele>264.79393964131</ele>
        <time>2017-11-06T14:33:55Z</time>
      </trkpt>
      <trkpt lat="44.61205" lon="1.5354">
        <ele>264.39849720547</ele>
        <time>2017-11-06T14:34:02Z</time>
      </trkpt>
      <trkpt lat="44.61204" lon="1.53529">
        <ele>264.87720237431</ele>
        <time>2017-11-06T14:34:09Z</time>
      </trkpt>
      <trkpt lat="44.61202" lon="1.53518">
        <ele>265.84002097599</ele>
        <time>2017-11-06T14:34:17Z</time>
      </trkpt>
      <trkpt lat="44.612" lon="1.53505">
        <ele>266.32977578345</ele>
        <time>2017-11-06T14:34:24Z</time>
      </trkpt>
      <trkpt lat="44.61199" lon="1.53494">
        <ele>266.8026824253</ele>
        <time>2017-11-06T14:34:30Z</time>
      </trkpt>
      <trkpt lat="44.61196" lon="1.53483">
        <ele>266.97369244558</ele>
        <time>2017-11-06T14:34:37Z</time>
      </trkpt>
      <trkpt lat="44.61192" lon="1.53473">
        <ele>266.32990452912</ele>
        <time>2017-11-06T14:34:43Z</time>
      </trkpt>
      <trkpt lat="44.61186" lon="1.53464">
        <ele>265.44370886488</ele>
        <time>2017-11-06T14:34:50Z</time>
      </trkpt>
      <trkpt lat="44.61184" lon="1.53452">
        <ele>264.86201462942</ele>
        <time>2017-11-06T14:34:59Z</time>
      </trkpt>
      <trkpt lat="44.61183" lon="1.5344">
        <ele>264.46636571043</ele>
        <time>2017-11-06T14:35:07Z</time>
      </trkpt>
      <trkpt lat="44.61177" lon="1.53433">
        <ele>264.65025820312</ele>
        <time>2017-11-06T14:35:14Z</time>
      </trkpt>
      <trkpt lat="44.61174" lon="1.53422">
        <ele>264.52816379391</ele>
        <time>2017-11-06T14:35:21Z</time>
      </trkpt>
      <trkpt lat="44.61168" lon="1.53414">
        <ele>264.14561374872</ele>
        <time>2017-11-06T14:35:27Z</time>
      </trkpt>
      <trkpt lat="44.61162" lon="1.53405">
        <ele>263.86897924599</ele>
        <time>2017-11-06T14:35:33Z</time>
      </trkpt>
      <trkpt lat="44.61157" lon="1.53395">
        <ele>265.12987429179</ele>
        <time>2017-11-06T14:35:41Z</time>
      </trkpt>
      <trkpt lat="44.61151" lon="1.53387">
        <ele>266.32215141671</ele>
        <time>2017-11-06T14:35:48Z</time>
      </trkpt>
      <trkpt lat="44.61144" lon="1.5338">
        <ele>266.81981146404</ele>
        <time>2017-11-06T14:35:54Z</time>
      </trkpt>
      <trkpt lat="44.61138" lon="1.53371">
        <ele>267.43013996824</ele>
        <time>2017-11-06T14:36:00Z</time>
      </trkpt>
      <trkpt lat="44.61132" lon="1.53362">
        <ele>267.80552470634</ele>
        <time>2017-11-06T14:36:07Z</time>
      </trkpt>
      <trkpt lat="44.61126" lon="1.53353">
        <ele>267.03434715307</ele>
        <time>2017-11-06T14:36:16Z</time>
      </trkpt>
      <trkpt lat="44.61121" lon="1.53345">
        <ele>266.56976064335</ele>
        <time>2017-11-06T14:36:22Z</time>
      </trkpt>
      <trkpt lat="44.61114" lon="1.53338">
        <ele>266.99296407535</ele>
        <time>2017-11-06T14:36:28Z</time>
      </trkpt>
      <trkpt lat="44.61108" lon="1.5333">
        <ele>267.72871992059</ele>
        <time>2017-11-06T14:36:35Z</time>
      </trkpt>
      <trkpt lat="44.61102" lon="1.53322">
        <ele>268.70945376938</ele>
        <time>2017-11-06T14:36:41Z</time>
      </trkpt>
      <trkpt lat="44.61094" lon="1.53318">
        <ele>270.04184080482</ele>
        <time>2017-11-06T14:36:49Z</time>
      </trkpt>
      <trkpt lat="44.61088" lon="1.53309">
        <ele>270.9064466795</ele>
        <time>2017-11-06T14:36:58Z</time>
      </trkpt>
      <trkpt lat="44.61082" lon="1.53301">
        <ele>271.39029964568</ele>
        <time>2017-11-06T14:37:05Z</time>
      </trkpt>
      <trkpt lat="44.61076" lon="1.53295">
        <ele>271.84189968115</ele>
        <time>2017-11-06T14:37:11Z</time>
      </trkpt>
      <trkpt lat="44.6107" lon="1.53286">
        <ele>272.07156121508</ele>
        <time>2017-11-06T14:37:18Z</time>
      </trkpt>
      <trkpt lat="44.61065" lon="1.53277">
        <ele>272.51533393217</ele>
        <time>2017-11-06T14:37:24Z</time>
      </trkpt>
      <trkpt lat="44.61062" lon="1.53268">
        <ele>273.29125165115</ele>
        <time>2017-11-06T14:37:49Z</time>
      </trkpt>
      <trkpt lat="44.61055" lon="1.53262">
        <ele>273.32916849329</ele>
        <time>2017-11-06T14:37:56Z</time>
      </trkpt>
      <trkpt lat="44.61048" lon="1.53253">
        <ele>273.1415343094</ele>
        <time>2017-11-06T14:38:03Z</time>
      </trkpt>
      <trkpt lat="44.61042" lon="1.53245">
        <ele>272.67687161477</ele>
        <time>2017-11-06T14:38:09Z</time>
      </trkpt>
      <trkpt lat="44.61037" lon="1.53236">
        <ele>272.61145923145</ele>
        <time>2017-11-06T14:38:16Z</time>
      </trkpt>
      <trkpt lat="44.61031" lon="1.53228">
        <ele>272.71224875691</ele>
        <time>2017-11-06T14:38:22Z</time>
      </trkpt>
      <trkpt lat="44.61027" lon="1.5322">
        <ele>272.91797544195</ele>
        <time>2017-11-06T14:38:27Z</time>
      </trkpt>
      <trkpt lat="44.61021" lon="1.5321">
        <ele>273.74700237723</ele>
        <time>2017-11-06T14:38:33Z</time>
      </trkpt>
      <trkpt lat="44.61017" lon="1.532">
        <ele>274.07128901064</ele>
        <time>2017-11-06T14:38:38Z</time>
      </trkpt>
      <trkpt lat="44.61014" lon="1.5319">
        <ele>273.17960837714</ele>
        <time>2017-11-06T14:38:44Z</time>
      </trkpt>
      <trkpt lat="44.61011" lon="1.53178">
        <ele>271.54513152254</ele>
        <time>2017-11-06T14:38:51Z</time>
      </trkpt>
      <trkpt lat="44.61011" lon="1.53167">
        <ele>270.78628880339</ele>
        <time>2017-11-06T14:38:56Z</time>
      </trkpt>
      <trkpt lat="44.61013" lon="1.53156">
        <ele>270.42185302528</ele>
        <time>2017-11-06T14:39:00Z</time>
      </trkpt>
      <trkpt lat="44.61011" lon="1.53145">
        <ele>270.44747812492</ele>
        <time>2017-11-06T14:39:05Z</time>
      </trkpt>
      <trkpt lat="44.61014" lon="1.53135">
        <ele>270.99092242558</ele>
        <time>2017-11-06T14:39:12Z</time>
      </trkpt>
      <trkpt lat="44.61017" lon="1.53124">
        <ele>270.953059056</ele>
        <time>2017-11-06T14:39:18Z</time>
      </trkpt>
      <trkpt lat="44.61014" lon="1.53113">
        <ele>271.72226622385</ele>
        <time>2017-11-06T14:39:27Z</time>
      </trkpt>
      <trkpt lat="44.61013" lon="1.53106">
        <ele>273.78566309373</ele>
        <time>2017-11-06T14:39:35Z</time>
      </trkpt>
      <trkpt lat="44.61013" lon="1.53093">
        <ele>274.78239494436</ele>
        <time>2017-11-06T14:39:40Z</time>
      </trkpt>
      <trkpt lat="44.61013" lon="1.53083">
        <ele>275.47756756835</ele>
        <time>2017-11-06T14:39:45Z</time>
      </trkpt>
      <trkpt lat="44.61012" lon="1.53076">
        <ele>276.33383101337</ele>
        <time>2017-11-06T14:39:49Z</time>
      </trkpt>
      <trkpt lat="44.61011" lon="1.53063">
        <ele>277.53603908659</ele>
        <time>2017-11-06T14:39:54Z</time>
      </trkpt>
      <trkpt lat="44.61008" lon="1.53051">
        <ele>278.31162527924</ele>
        <time>2017-11-06T14:40:02Z</time>
      </trkpt>
      <trkpt lat="44.61006" lon="1.5304">
        <ele>279.62822993662</ele>
        <time>2017-11-06T14:40:13Z</time>
      </trkpt>
      <trkpt lat="44.61005" lon="1.53029">
        <ele>281.49892895074</ele>
        <time>2017-11-06T14:40:20Z</time>
      </trkpt>
      <trkpt lat="44.61002" lon="1.53017">
        <ele>283.51144767508</ele>
        <time>2017-11-06T14:40:29Z</time>
      </trkpt>
      <trkpt lat="44.61001" lon="1.53008">
        <ele>284.7227315572</ele>
        <time>2017-11-06T14:40:36Z</time>
      </trkpt>
      <trkpt lat="44.61" lon="1.52995">
        <ele>284.92222225253</ele>
        <time>2017-11-06T14:40:41Z</time>
      </trkpt>
      <trkpt lat="44.61001" lon="1.52984">
        <ele>284.76265140272</ele>
        <time>2017-11-06T14:40:48Z</time>
      </trkpt>
      <trkpt lat="44.61002" lon="1.52973">
        <ele>284.69258735508</ele>
        <time>2017-11-06T14:40:54Z</time>
      </trkpt>
      <trkpt lat="44.61002" lon="1.5296">
        <ele>284.7225979315</ele>
        <time>2017-11-06T14:40:59Z</time>
      </trkpt>
      <trkpt lat="44.61001" lon="1.52948">
        <ele>284.71440129361</ele>
        <time>2017-11-06T14:41:07Z</time>
      </trkpt>
      <trkpt lat="44.60998" lon="1.52937">
        <ele>284.97190380764</ele>
        <time>2017-11-06T14:41:15Z</time>
      </trkpt>
      <trkpt lat="44.60995" lon="1.52926">
        <ele>284.86080421506</ele>
        <time>2017-11-06T14:41:21Z</time>
      </trkpt>
      <trkpt lat="44.60994" lon="1.52911">
        <ele>284.46803169451</ele>
        <time>2017-11-06T14:41:26Z</time>
      </trkpt>
      <trkpt lat="44.60992" lon="1.52899">
        <ele>282.71133002252</ele>
        <time>2017-11-06T14:41:34Z</time>
      </trkpt>
      <trkpt lat="44.60991" lon="1.5289">
        <ele>281.54730192846</ele>
        <time>2017-11-06T14:41:40Z</time>
      </trkpt>
      <trkpt lat="44.6099" lon="1.52879">
        <ele>280.62116399494</ele>
        <time>2017-11-06T14:41:45Z</time>
      </trkpt>
      <trkpt lat="44.60988" lon="1.52867">
        <ele>279.87892139496</ele>
        <time>2017-11-06T14:41:53Z</time>
      </trkpt>
      <trkpt lat="44.60987" lon="1.52855">
        <ele>280.29722961543</ele>
        <time>2017-11-06T14:41:58Z</time>
      </trkpt>
      <trkpt lat="44.60984" lon="1.52844">
        <ele>281.30597504406</ele>
        <time>2017-11-06T14:42:06Z</time>
      </trkpt>
      <trkpt lat="44.6098" lon="1.52833">
        <ele>282.32212636517</ele>
        <time>2017-11-06T14:42:13Z</time>
      </trkpt>
      <trkpt lat="44.60977" lon="1.52821">
        <ele>282.7388756787</ele>
        <time>2017-11-06T14:42:17Z</time>
      </trkpt>
      <trkpt lat="44.60975" lon="1.5281">
        <ele>284.38069950031</ele>
        <time>2017-11-06T14:42:27Z</time>
      </trkpt>
      <trkpt lat="44.60974" lon="1.52799">
        <ele>285.47266953947</ele>
        <time>2017-11-06T14:42:36Z</time>
      </trkpt>
      <trkpt lat="44.6097" lon="1.52786">
        <ele>285.75344823904</ele>
        <time>2017-11-06T14:42:41Z</time>
      </trkpt>
      <trkpt lat="44.60969" lon="1.52775">
        <ele>286.28074507753</ele>
        <time>2017-11-06T14:42:52Z</time>
      </trkpt>
      <trkpt lat="44.60967" lon="1.52768">
        <ele>286.4778007695</ele>
        <time>2017-11-06T14:42:57Z</time>
      </trkpt>
      <trkpt lat="44.60965" lon="1.52756">
        <ele>286.72899564887</ele>
        <time>2017-11-06T14:43:03Z</time>
      </trkpt>
      <trkpt lat="44.60964" lon="1.52745">
        <ele>286.88142991267</ele>
        <time>2017-11-06T14:43:10Z</time>
      </trkpt>
      <trkpt lat="44.60962" lon="1.52734">
        <ele>287.00172548496</ele>
        <time>2017-11-06T14:43:17Z</time>
      </trkpt>
      <trkpt lat="44.60959" lon="1.52723">
        <ele>286.36487057251</ele>
        <time>2017-11-06T14:43:24Z</time>
      </trkpt>
      <trkpt lat="44.60957" lon="1.52713">
        <ele>284.78893552357</ele>
        <time>2017-11-06T14:43:33Z</time>
      </trkpt>
      <trkpt lat="44.60954" lon="1.52702">
        <ele>284.42537908909</ele>
        <time>2017-11-06T14:43:39Z</time>
      </trkpt>
      <trkpt lat="44.60951" lon="1.52692">
        <ele>284.32075450572</ele>
        <time>2017-11-06T14:43:46Z</time>
      </trkpt>
      <trkpt lat="44.60952" lon="1.5268">
        <ele>285.35755558037</ele>
        <time>2017-11-06T14:43:53Z</time>
      </trkpt>
      <trkpt lat="44.60949" lon="1.52671">
        <ele>286.42974425315</ele>
        <time>2017-11-06T14:43:58Z</time>
      </trkpt>
      <trkpt lat="44.60945" lon="1.52661">
        <ele>287.45225845699</ele>
        <time>2017-11-06T14:44:03Z</time>
      </trkpt>
      <trkpt lat="44.60944" lon="1.52649">
        <ele>288.78289983082</ele>
        <time>2017-11-06T14:44:11Z</time>
      </trkpt>
      <trkpt lat="44.60941" lon="1.52638">
        <ele>288.09342821246</ele>
        <time>2017-11-06T14:44:20Z</time>
      </trkpt>
      <trkpt lat="44.60939" lon="1.52626">
        <ele>288.46330680302</ele>
        <time>2017-11-06T14:44:25Z</time>
      </trkpt>
      <trkpt lat="44.60936" lon="1.52614">
        <ele>288.98095537577</ele>
        <time>2017-11-06T14:44:32Z</time>
      </trkpt>
      <trkpt lat="44.60932" lon="1.52606">
        <ele>290.62023287416</ele>
        <time>2017-11-06T14:44:39Z</time>
      </trkpt>
      <trkpt lat="44.60926" lon="1.52596">
        <ele>291.45945473092</ele>
        <time>2017-11-06T14:44:43Z</time>
      </trkpt>
      <trkpt lat="44.60927" lon="1.52584">
        <ele>291.51055737362</ele>
        <time>2017-11-06T14:44:52Z</time>
      </trkpt>
      <trkpt lat="44.60926" lon="1.52573">
        <ele>291.57747924858</ele>
        <time>2017-11-06T14:45:00Z</time>
      </trkpt>
      <trkpt lat="44.60923" lon="1.52562">
        <ele>291.12093746707</ele>
        <time>2017-11-06T14:45:07Z</time>
      </trkpt>
      <trkpt lat="44.6092" lon="1.5255">
        <ele>290.60923585236</ele>
        <time>2017-11-06T14:45:16Z</time>
      </trkpt>
      <trkpt lat="44.60921" lon="1.52541">
        <ele>290.41932166136</ele>
        <time>2017-11-06T14:45:24Z</time>
      </trkpt>
      <trkpt lat="44.60918" lon="1.52524">
        <ele>290.65778273415</ele>
        <time>2017-11-06T14:45:28Z</time>
      </trkpt>
      <trkpt lat="44.60918" lon="1.52512">
        <ele>290.4676096198</ele>
        <time>2017-11-06T14:45:35Z</time>
      </trkpt>
      <trkpt lat="44.60916" lon="1.52501">
        <ele>290.6588504217</ele>
        <time>2017-11-06T14:45:41Z</time>
      </trkpt>
      <trkpt lat="44.60912" lon="1.5249">
        <ele>290.45221049186</ele>
        <time>2017-11-06T14:45:46Z</time>
      </trkpt>
      <trkpt lat="44.60909" lon="1.52479">
        <ele>289.12402364282</ele>
        <time>2017-11-06T14:45:56Z</time>
      </trkpt>
      <trkpt lat="44.60904" lon="1.52469">
        <ele>289.05260525456</ele>
        <time>2017-11-06T14:46:05Z</time>
      </trkpt>
      <trkpt lat="44.609" lon="1.52458">
        <ele>290.19782614257</ele>
        <time>2017-11-06T14:46:13Z</time>
      </trkpt>
      <trkpt lat="44.60896" lon="1.52448">
        <ele>291.20096757352</ele>
        <time>2017-11-06T14:46:18Z</time>
      </trkpt>
      <trkpt lat="44.60893" lon="1.52437">
        <ele>291.86615451022</ele>
        <time>2017-11-06T14:46:24Z</time>
      </trkpt>
      <trkpt lat="44.60891" lon="1.52426">
        <ele>292.40838285427</ele>
        <time>2017-11-06T14:46:30Z</time>
      </trkpt>
      <trkpt lat="44.60886" lon="1.52416">
        <ele>293.68064283409</ele>
        <time>2017-11-06T14:46:40Z</time>
      </trkpt>
      <trkpt lat="44.6088" lon="1.52408">
        <ele>295.06251555333</ele>
        <time>2017-11-06T14:46:48Z</time>
      </trkpt>
      <trkpt lat="44.60875" lon="1.52398">
        <ele>296.76795471182</ele>
        <time>2017-11-06T14:46:56Z</time>
      </trkpt>
      <trkpt lat="44.60873" lon="1.52386">
        <ele>297.03608989504</ele>
        <time>2017-11-06T14:47:04Z</time>
      </trkpt>
      <trkpt lat="44.60872" lon="1.52374">
        <ele>296.68460361568</ele>
        <time>2017-11-06T14:47:09Z</time>
      </trkpt>
      <trkpt lat="44.60871" lon="1.52364">
        <ele>296.038232919</ele>
        <time>2017-11-06T14:47:17Z</time>
      </trkpt>
      <trkpt lat="44.6087" lon="1.52355">
        <ele>295.55658028866</ele>
        <time>2017-11-06T14:47:23Z</time>
      </trkpt>
      <trkpt lat="44.60868" lon="1.52344">
        <ele>295.35120702931</ele>
        <time>2017-11-06T14:47:28Z</time>
      </trkpt>
      <trkpt lat="44.60865" lon="1.52334">
        <ele>295.38213720124</ele>
        <time>2017-11-06T14:47:34Z</time>
      </trkpt>
      <trkpt lat="44.60863" lon="1.52323">
        <ele>295.51797316632</ele>
        <time>2017-11-06T14:47:42Z</time>
      </trkpt>
      <trkpt lat="44.60862" lon="1.5231">
        <ele>296.60829375775</ele>
        <time>2017-11-06T14:47:50Z</time>
      </trkpt>
      <trkpt lat="44.6086" lon="1.52299">
        <ele>297.7998547793</ele>
        <time>2017-11-06T14:47:58Z</time>
      </trkpt>
      <trkpt lat="44.60858" lon="1.52288">
        <ele>298.03359040749</ele>
        <time>2017-11-06T14:48:04Z</time>
      </trkpt>
      <trkpt lat="44.60858" lon="1.52276">
        <ele>298.05367306109</ele>
        <time>2017-11-06T14:48:09Z</time>
      </trkpt>
      <trkpt lat="44.60855" lon="1.52265">
        <ele>297.91182763967</ele>
        <time>2017-11-06T14:48:19Z</time>
      </trkpt>
      <trkpt lat="44.60849" lon="1.52256">
        <ele>297.58197603016</ele>
        <time>2017-11-06T14:49:57Z</time>
      </trkpt>
      <trkpt lat="44.60842" lon="1.52249">
        <ele>299.22314073961</ele>
        <time>2017-11-06T14:50:01Z</time>
      </trkpt>
      <trkpt lat="44.6084" lon="1.52237">
        <ele>298.02616895152</ele>
        <time>2017-11-06T14:50:41Z</time>
      </trkpt>
      <trkpt lat="44.6084" lon="1.52225">
        <ele>297.38598045554</ele>
        <time>2017-11-06T14:50:49Z</time>
      </trkpt>
      <trkpt lat="44.60836" lon="1.52214">
        <ele>296.58864434639</ele>
        <time>2017-11-06T14:57:13Z</time>
      </trkpt>
      <trkpt lat="44.60834" lon="1.52202">
        <ele>297.29930691644</ele>
        <time>2017-11-06T14:57:21Z</time>
      </trkpt>
      <trkpt lat="44.6084" lon="1.5221">
        <ele>292.88144846295</ele>
        <time>2017-11-06T14:58:47Z</time>
      </trkpt>
      <trkpt lat="44.60844" lon="1.52221">
        <ele>292.63501154137</ele>
        <time>2017-11-06T14:58:57Z</time>
      </trkpt>
      <trkpt lat="44.60846" lon="1.52232">
        <ele>294.55063960855</ele>
        <time>2017-11-06T14:59:58Z</time>
      </trkpt>
      <trkpt lat="44.60841" lon="1.52242">
        <ele>297.996709898</ele>
        <time>2017-11-06T15:00:41Z</time>
      </trkpt>
      <trkpt lat="44.60837" lon="1.52253">
        <ele>298.56139771878</ele>
        <time>2017-11-06T15:00:56Z</time>
      </trkpt>
      <trkpt lat="44.6083" lon="1.52256">
        <ele>300.27249829068</ele>
        <time>2017-11-06T15:01:07Z</time>
      </trkpt>
      <trkpt lat="44.60823" lon="1.52258">
        <ele>300.0913989319</ele>
        <time>2017-11-06T15:01:13Z</time>
      </trkpt>
      <trkpt lat="44.60815" lon="1.52259">
        <ele>299.23544388656</ele>
        <time>2017-11-06T15:01:20Z</time>
      </trkpt>
      <trkpt lat="44.60806" lon="1.52262">
        <ele>299.5241813125</ele>
        <time>2017-11-06T15:01:29Z</time>
      </trkpt>
      <trkpt lat="44.60798" lon="1.52266">
        <ele>299.60803297353</ele>
        <time>2017-11-06T15:01:37Z</time>
      </trkpt>
      <trkpt lat="44.60791" lon="1.52266">
        <ele>300.01141922157</ele>
        <time>2017-11-06T15:01:45Z</time>
      </trkpt>
      <trkpt lat="44.60782" lon="1.52267">
        <ele>300.12520653569</ele>
        <time>2017-11-06T15:01:52Z</time>
      </trkpt>
      <trkpt lat="44.60774" lon="1.52265">
        <ele>299.82064691807</ele>
        <time>2017-11-06T15:02:00Z</time>
      </trkpt>
      <trkpt lat="44.60765" lon="1.52267">
        <ele>299.63082288207</ele>
        <time>2017-11-06T15:02:10Z</time>
      </trkpt>
      <trkpt lat="44.6076" lon="1.52276">
        <ele>299.19181457579</ele>
        <time>2017-11-06T15:02:15Z</time>
      </trkpt>
      <trkpt lat="44.60753" lon="1.52284">
        <ele>298.91512457798</ele>
        <time>2017-11-06T15:02:26Z</time>
      </trkpt>
      <trkpt lat="44.60745" lon="1.52286">
        <ele>298.39317498876</ele>
        <time>2017-11-06T15:02:41Z</time>
      </trkpt>
      <trkpt lat="44.60737" lon="1.52288">
        <ele>298.45789338147</ele>
        <time>2017-11-06T15:02:46Z</time>
      </trkpt>
      <trkpt lat="44.60729" lon="1.52281">
        <ele>298.70680946864</ele>
        <time>2017-11-06T15:02:51Z</time>
      </trkpt>
      <trkpt lat="44.60721" lon="1.52276">
        <ele>301.31979516718</ele>
        <time>2017-11-06T15:03:06Z</time>
      </trkpt>
      <trkpt lat="44.60714" lon="1.52272">
        <ele>303.30256067221</ele>
        <time>2017-11-06T15:03:17Z</time>
      </trkpt>
      <trkpt lat="44.60708" lon="1.52263">
        <ele>304.38977362858</ele>
        <time>2017-11-06T15:03:22Z</time>
      </trkpt>
      <trkpt lat="44.60704" lon="1.52253">
        <ele>306.39499365135</ele>
        <time>2017-11-06T15:03:30Z</time>
      </trkpt>
      <trkpt lat="44.60698" lon="1.52244">
        <ele>307.15440184337</ele>
        <time>2017-11-06T15:03:38Z</time>
      </trkpt>
      <trkpt lat="44.6069" lon="1.52241">
        <ele>310.87240457528</ele>
        <time>2017-11-06T15:03:50Z</time>
      </trkpt>
      <trkpt lat="44.60682" lon="1.52242">
        <ele>313.29795928398</ele>
        <time>2017-11-06T15:04:02Z</time>
      </trkpt>
      <trkpt lat="44.60675" lon="1.52248">
        <ele>315.49564334083</ele>
        <time>2017-11-06T15:04:10Z</time>
      </trkpt>
      <trkpt lat="44.60666" lon="1.52251">
        <ele>316.81613227228</ele>
        <time>2017-11-06T15:04:19Z</time>
      </trkpt>
      <trkpt lat="44.60658" lon="1.52249">
        <ele>317.00268685281</ele>
        <time>2017-11-06T15:04:31Z</time>
      </trkpt>
      <trkpt lat="44.60649" lon="1.52249">
        <ele>317.07038949428</ele>
        <time>2017-11-06T15:04:37Z</time>
      </trkpt>
      <trkpt lat="44.60641" lon="1.5225">
        <ele>317.76208734383</ele>
        <time>2017-11-06T15:04:45Z</time>
      </trkpt>
      <trkpt lat="44.60632" lon="1.52251">
        <ele>318.75387322159</ele>
        <time>2017-11-06T15:04:53Z</time>
      </trkpt>
      <trkpt lat="44.60623" lon="1.52252">
        <ele>319.6674479067</ele>
        <time>2017-11-06T15:05:00Z</time>
      </trkpt>
      <trkpt lat="44.60615" lon="1.5225">
        <ele>320.50863759982</ele>
        <time>2017-11-06T15:05:10Z</time>
      </trkpt>
      <trkpt lat="44.60607" lon="1.52252">
        <ele>322.12651463373</ele>
        <time>2017-11-06T15:05:22Z</time>
      </trkpt>
      <trkpt lat="44.60601" lon="1.52252">
        <ele>322.83890906012</ele>
        <time>2017-11-06T15:05:26Z</time>
      </trkpt>
      <trkpt lat="44.60594" lon="1.52253">
        <ele>323.42214507858</ele>
        <time>2017-11-06T15:05:32Z</time>
      </trkpt>
      <trkpt lat="44.60585" lon="1.52255">
        <ele>324.22469461365</ele>
        <time>2017-11-06T15:05:37Z</time>
      </trkpt>
      <trkpt lat="44.60577" lon="1.52253">
        <ele>326.60558263772</ele>
        <time>2017-11-06T15:05:52Z</time>
      </trkpt>
      <trkpt lat="44.60569" lon="1.52256">
        <ele>327.21346529893</ele>
        <time>2017-11-06T15:05:58Z</time>
      </trkpt>
      <trkpt lat="44.6056" lon="1.52258">
        <ele>328.21828551057</ele>
        <time>2017-11-06T15:06:06Z</time>
      </trkpt>
      <trkpt lat="44.60552" lon="1.52257">
        <ele>328.75005052419</ele>
        <time>2017-11-06T15:06:16Z</time>
      </trkpt>
      <trkpt lat="44.60545" lon="1.52265">
        <ele>329.66696437182</ele>
        <time>2017-11-06T15:06:26Z</time>
      </trkpt>
      <trkpt lat="44.60543" lon="1.52275">
        <ele>331.02627777221</ele>
        <time>2017-11-06T15:06:45Z</time>
      </trkpt>
      <trkpt lat="44.60536" lon="1.52282">
        <ele>331.59079177687</ele>
        <time>2017-11-06T15:06:52Z</time>
      </trkpt>
      <trkpt lat="44.60534" lon="1.52293">
        <ele>333.01954052084</ele>
        <time>2017-11-06T15:07:00Z</time>
      </trkpt>
      <trkpt lat="44.60529" lon="1.52299">
        <ele>334.11662148229</ele>
        <time>2017-11-06T15:07:05Z</time>
      </trkpt>
      <trkpt lat="44.60523" lon="1.52307">
        <ele>334.72323513493</ele>
        <time>2017-11-06T15:07:11Z</time>
      </trkpt>
      <trkpt lat="44.60519" lon="1.52318">
        <ele>335.81216273546</ele>
        <time>2017-11-06T15:07:25Z</time>
      </trkpt>
      <trkpt lat="44.60512" lon="1.52326">
        <ele>336.98598279113</ele>
        <time>2017-11-06T15:07:33Z</time>
      </trkpt>
      <trkpt lat="44.60508" lon="1.52337">
        <ele>338.56565238364</ele>
        <time>2017-11-06T15:07:43Z</time>
      </trkpt>
      <trkpt lat="44.60502" lon="1.52343">
        <ele>339.81989477654</ele>
        <time>2017-11-06T15:07:53Z</time>
      </trkpt>
      <trkpt lat="44.60497" lon="1.52353">
        <ele>340.22874084031</ele>
        <time>2017-11-06T15:07:57Z</time>
      </trkpt>
      <trkpt lat="44.6049" lon="1.52359">
        <ele>340.46714781277</ele>
        <time>2017-11-06T15:08:06Z</time>
      </trkpt>
      <trkpt lat="44.60482" lon="1.52365">
        <ele>341.2862214929</ele>
        <time>2017-11-06T15:08:17Z</time>
      </trkpt>
      <trkpt lat="44.60476" lon="1.52373">
        <ele>338.98015040703</ele>
        <time>2017-11-06T15:08:30Z</time>
      </trkpt>
      <trkpt lat="44.6047" lon="1.52381">
        <ele>337.7378051151</ele>
        <time>2017-11-06T15:08:38Z</time>
      </trkpt>
      <trkpt lat="44.60466" lon="1.5239">
        <ele>337.6307557534</ele>
        <time>2017-11-06T15:08:43Z</time>
      </trkpt>
      <trkpt lat="44.60462" lon="1.52399">
        <ele>337.90383479721</ele>
        <time>2017-11-06T15:08:50Z</time>
      </trkpt>
      <trkpt lat="44.60464" lon="1.52409">
        <ele>338.13677697452</ele>
        <time>2017-11-06T15:08:54Z</time>
      </trkpt>
      <trkpt lat="44.6046" lon="1.52421">
        <ele>339.44143279388</ele>
        <time>2017-11-06T15:09:02Z</time>
      </trkpt>
      <trkpt lat="44.60453" lon="1.52428">
        <ele>340.05797305767</ele>
        <time>2017-11-06T15:09:09Z</time>
      </trkpt>
      <trkpt lat="44.60445" lon="1.52433">
        <ele>341.68640216981</ele>
        <time>2017-11-06T15:09:19Z</time>
      </trkpt>
      <trkpt lat="44.60437" lon="1.52437">
        <ele>344.44320362091</ele>
        <time>2017-11-06T15:09:31Z</time>
      </trkpt>
      <trkpt lat="44.60431" lon="1.52441">
        <ele>345.89918795832</ele>
        <time>2017-11-06T15:09:39Z</time>
      </trkpt>
      <trkpt lat="44.60424" lon="1.52449">
        <ele>347.51860564984</ele>
        <time>2017-11-06T15:09:50Z</time>
      </trkpt>
      <trkpt lat="44.60417" lon="1.52453">
        <ele>348.87286483303</ele>
        <time>2017-11-06T15:09:57Z</time>
      </trkpt>
      <trkpt lat="44.60408" lon="1.52454">
        <ele>350.31945007543</ele>
        <time>2017-11-06T15:10:11Z</time>
      </trkpt>
      <trkpt lat="44.60403" lon="1.52457">
        <ele>351.87613153129</ele>
        <time>2017-11-06T15:10:30Z</time>
      </trkpt>
      <trkpt lat="44.60396" lon="1.52464">
        <ele>352.61256882341</ele>
        <time>2017-11-06T15:10:37Z</time>
      </trkpt>
      <trkpt lat="44.60387" lon="1.52467">
        <ele>353.30970733069</ele>
        <time>2017-11-06T15:10:49Z</time>
      </trkpt>
      <trkpt lat="44.6038" lon="1.52474">
        <ele>353.35659885218</ele>
        <time>2017-11-06T15:10:59Z</time>
      </trkpt>
      <trkpt lat="44.60373" lon="1.52474">
        <ele>354.69453492502</ele>
        <time>2017-11-06T15:11:11Z</time>
      </trkpt>
      <trkpt lat="44.60365" lon="1.52472">
        <ele>356.02097911971</ele>
        <time>2017-11-06T15:11:17Z</time>
      </trkpt>
      <trkpt lat="44.60356" lon="1.52469">
        <ele>358.16295474998</ele>
        <time>2017-11-06T15:11:26Z</time>
      </trkpt>
      <trkpt lat="44.60351" lon="1.52459">
        <ele>359.67711619343</ele>
        <time>2017-11-06T15:11:35Z</time>
      </trkpt>
      <trkpt lat="44.60345" lon="1.5245">
        <ele>365.99135631041</ele>
        <time>2017-11-06T15:12:41Z</time>
      </trkpt>
      <trkpt lat="44.60338" lon="1.52444">
        <ele>367.02929343898</ele>
        <time>2017-11-06T15:12:47Z</time>
      </trkpt>
      <trkpt lat="44.60333" lon="1.52434">
        <ele>367.73360483545</ele>
        <time>2017-11-06T15:12:58Z</time>
      </trkpt>
      <trkpt lat="44.60331" lon="1.52422">
        <ele>369.04748551244</ele>
        <time>2017-11-06T15:13:16Z</time>
      </trkpt>
      <trkpt lat="44.60328" lon="1.5241">
        <ele>371.96561465557</ele>
        <time>2017-11-06T15:14:39Z</time>
      </trkpt>
      <trkpt lat="44.60331" lon="1.52398">
        <ele>371.68440485368</ele>
        <time>2017-11-06T15:14:50Z</time>
      </trkpt>
      <trkpt lat="44.60332" lon="1.52389">
        <ele>372.49496549284</ele>
        <time>2017-11-06T15:14:58Z</time>
      </trkpt>
      <trkpt lat="44.60336" lon="1.52379">
        <ele>373.81397911469</ele>
        <time>2017-11-06T15:15:14Z</time>
      </trkpt>
      <trkpt lat="44.60336" lon="1.52366">
        <ele>375.89174461082</ele>
        <time>2017-11-06T15:15:32Z</time>
      </trkpt>
      <trkpt lat="44.60338" lon="1.52356">
        <ele>376.67407060267</ele>
        <time>2017-11-06T15:15:56Z</time>
      </trkpt>
      <trkpt lat="44.60343" lon="1.52338">
        <ele>377.45218568381</ele>
        <time>2017-11-06T15:16:01Z</time>
      </trkpt>
      <trkpt lat="44.60349" lon="1.5233">
        <ele>379.28033723403</ele>
        <time>2017-11-06T15:16:11Z</time>
      </trkpt>
      <trkpt lat="44.60356" lon="1.52323">
        <ele>380.86667011027</ele>
        <time>2017-11-06T15:16:16Z</time>
      </trkpt>
      <trkpt lat="44.60352" lon="1.52314">
        <ele>382.27033577222</ele>
        <time>2017-11-06T15:16:38Z</time>
      </trkpt>
      <trkpt lat="44.6035" lon="1.52302">
        <ele>382.39394058785</ele>
        <time>2017-11-06T15:16:44Z</time>
      </trkpt>
      <trkpt lat="44.60355" lon="1.52294">
        <ele>383.14562812657</ele>
        <time>2017-11-06T15:16:52Z</time>
      </trkpt>
      <trkpt lat="44.60363" lon="1.52283">
        <ele>382.94828303627</ele>
        <time>2017-11-06T15:16:57Z</time>
      </trkpt>
      <trkpt lat="44.60368" lon="1.52273">
        <ele>381.59514035356</ele>
        <time>2017-11-06T15:17:06Z</time>
      </trkpt>
      <trkpt lat="44.60373" lon="1.52266">
        <ele>382.26410972678</ele>
        <time>2017-11-06T15:17:14Z</time>
      </trkpt>
      <trkpt lat="44.60378" lon="1.52256">
        <ele>383.06126412567</ele>
        <time>2017-11-06T15:17:19Z</time>
      </trkpt>
      <trkpt lat="44.60385" lon="1.5225">
        <ele>382.84150735807</ele>
        <time>2017-11-06T15:17:28Z</time>
      </trkpt>
      <trkpt lat="44.60393" lon="1.52245">
        <ele>383.20415646452</ele>
        <time>2017-11-06T15:17:35Z</time>
      </trkpt>
      <trkpt lat="44.60401" lon="1.52241">
        <ele>382.08547287104</ele>
        <time>2017-11-06T15:17:41Z</time>
      </trkpt>
      <trkpt lat="44.60408" lon="1.52236">
        <ele>380.71042422314</ele>
        <time>2017-11-06T15:17:49Z</time>
      </trkpt>
      <trkpt lat="44.60414" lon="1.52228">
        <ele>380.32756298114</ele>
        <time>2017-11-06T15:17:56Z</time>
      </trkpt>
      <trkpt lat="44.60422" lon="1.52222">
        <ele>381.15941490213</ele>
        <time>2017-11-06T15:18:03Z</time>
      </trkpt>
      <trkpt lat="44.60428" lon="1.52214">
        <ele>383.00991569305</ele>
        <time>2017-11-06T15:18:12Z</time>
      </trkpt>
      <trkpt lat="44.60433" lon="1.52206">
        <ele>383.66369818303</ele>
        <time>2017-11-06T15:18:18Z</time>
      </trkpt>
      <trkpt lat="44.60438" lon="1.52197">
        <ele>384.06492527716</ele>
        <time>2017-11-06T15:18:24Z</time>
      </trkpt>
      <trkpt lat="44.60445" lon="1.52189">
        <ele>384.18059266358</ele>
        <time>2017-11-06T15:18:31Z</time>
      </trkpt>
      <trkpt lat="44.60451" lon="1.52182">
        <ele>383.86494610204</ele>
        <time>2017-11-06T15:18:39Z</time>
      </trkpt>
      <trkpt lat="44.60457" lon="1.52175">
        <ele>383.78106792052</ele>
        <time>2017-11-06T15:18:49Z</time>
      </trkpt>
      <trkpt lat="44.60464" lon="1.52167">
        <ele>385.02808359036</ele>
        <time>2017-11-06T15:19:04Z</time>
      </trkpt>
      <trkpt lat="44.60473" lon="1.52164">
        <ele>385.55110582223</ele>
        <time>2017-11-06T15:19:11Z</time>
      </trkpt>
      <trkpt lat="44.60481" lon="1.52162">
        <ele>385.50753481721</ele>
        <time>2017-11-06T15:19:17Z</time>
      </trkpt>
      <trkpt lat="44.60489" lon="1.52159">
        <ele>385.38315620126</ele>
        <time>2017-11-06T15:19:33Z</time>
      </trkpt>
      <trkpt lat="44.60496" lon="1.52153">
        <ele>386.19755318377</ele>
        <time>2017-11-06T15:19:41Z</time>
      </trkpt>
      <trkpt lat="44.60504" lon="1.52149">
        <ele>386.29704392651</ele>
        <time>2017-11-06T15:19:47Z</time>
      </trkpt>
      <trkpt lat="44.60511" lon="1.52144">
        <ele>385.53892129061</ele>
        <time>2017-11-06T15:19:54Z</time>
      </trkpt>
      <trkpt lat="44.60518" lon="1.52137">
        <ele>384.48939809497</ele>
        <time>2017-11-06T15:20:01Z</time>
      </trkpt>
      <trkpt lat="44.60525" lon="1.52128">
        <ele>383.04365525582</ele>
        <time>2017-11-06T15:20:12Z</time>
      </trkpt>
      <trkpt lat="44.6053" lon="1.52119">
        <ele>382.03536134117</ele>
        <time>2017-11-06T15:20:20Z</time>
      </trkpt>
      <trkpt lat="44.60535" lon="1.52109">
        <ele>382.02399607483</ele>
        <time>2017-11-06T15:20:33Z</time>
      </trkpt>
      <trkpt lat="44.60541" lon="1.52099">
        <ele>381.50543159143</ele>
        <time>2017-11-06T15:20:47Z</time>
      </trkpt>
      <trkpt lat="44.60549" lon="1.521">
        <ele>380.20250465689</ele>
        <time>2017-11-06T15:20:55Z</time>
      </trkpt>
      <trkpt lat="44.60556" lon="1.52106">
        <ele>378.87403565613</ele>
        <time>2017-11-06T15:21:02Z</time>
      </trkpt>
      <trkpt lat="44.60563" lon="1.52112">
        <ele>377.48455554132</ele>
        <time>2017-11-06T15:21:10Z</time>
      </trkpt>
      <trkpt lat="44.60571" lon="1.52116">
        <ele>376.65771988318</ele>
        <time>2017-11-06T15:21:18Z</time>
      </trkpt>
      <trkpt lat="44.60573" lon="1.52128">
        <ele>370.23374721029</ele>
        <time>2017-11-06T15:21:54Z</time>
      </trkpt>
      <trkpt lat="44.60579" lon="1.52136">
        <ele>369.41518705569</ele>
        <time>2017-11-06T15:22:06Z</time>
      </trkpt>
      <trkpt lat="44.60586" lon="1.5214">
        <ele>369.0818484154</ele>
        <time>2017-11-06T15:22:11Z</time>
      </trkpt>
      <trkpt lat="44.60594" lon="1.52139">
        <ele>368.21341821815</ele>
        <time>2017-11-06T15:22:18Z</time>
      </trkpt>
      <trkpt lat="44.60601" lon="1.52141">
        <ele>367.12352228355</ele>
        <time>2017-11-06T15:22:25Z</time>
      </trkpt>
      <trkpt lat="44.6061" lon="1.52136">
        <ele>366.04041642094</ele>
        <time>2017-11-06T15:22:30Z</time>
      </trkpt>
      <trkpt lat="44.60619" lon="1.52136">
        <ele>364.44432676145</ele>
        <time>2017-11-06T15:22:38Z</time>
      </trkpt>
      <trkpt lat="44.60626" lon="1.52136">
        <ele>364.20540198981</ele>
        <time>2017-11-06T15:22:44Z</time>
      </trkpt>
      <trkpt lat="44.60634" lon="1.5213">
        <ele>364.15989961453</ele>
        <time>2017-11-06T15:22:48Z</time>
      </trkpt>
      <trkpt lat="44.60641" lon="1.52122">
        <ele>363.92766012743</ele>
        <time>2017-11-06T15:22:56Z</time>
      </trkpt>
      <trkpt lat="44.60647" lon="1.52131">
        <ele>362.7624682995</ele>
        <time>2017-11-06T15:23:08Z</time>
      </trkpt>
      <trkpt lat="44.60655" lon="1.52129">
        <ele>358.35558242679</ele>
        <time>2017-11-06T15:23:25Z</time>
      </trkpt>
      <trkpt lat="44.60663" lon="1.52125">
        <ele>357.2151253189</ele>
        <time>2017-11-06T15:23:44Z</time>
      </trkpt>
      <trkpt lat="44.60672" lon="1.52126">
        <ele>356.45884777097</ele>
        <time>2017-11-06T15:24:07Z</time>
      </trkpt>
      <trkpt lat="44.6068" lon="1.52132">
        <ele>355.71702084055</ele>
        <time>2017-11-06T15:24:12Z</time>
      </trkpt>
      <trkpt lat="44.60686" lon="1.52142">
        <ele>355.01086497741</ele>
        <time>2017-11-06T15:24:16Z</time>
      </trkpt>
      <trkpt lat="44.60693" lon="1.5215">
        <ele>353.70540524648</ele>
        <time>2017-11-06T15:24:23Z</time>
      </trkpt>
      <trkpt lat="44.607" lon="1.52154">
        <ele>353.03721799556</ele>
        <time>2017-11-06T15:24:29Z</time>
      </trkpt>
      <trkpt lat="44.60708" lon="1.5216">
        <ele>352.25273287528</ele>
        <time>2017-11-06T15:24:34Z</time>
      </trkpt>
      <trkpt lat="44.60716" lon="1.52162">
        <ele>351.69968522094</ele>
        <time>2017-11-06T15:24:39Z</time>
      </trkpt>
      <trkpt lat="44.60725" lon="1.52162">
        <ele>349.78883663527</ele>
        <time>2017-11-06T15:24:47Z</time>
      </trkpt>
      <trkpt lat="44.6073" lon="1.52153">
        <ele>348.46275849175</ele>
        <time>2017-11-06T15:24:54Z</time>
      </trkpt>
      <trkpt lat="44.60729" lon="1.52141">
        <ele>347.11054737925</ele>
        <time>2017-11-06T15:25:02Z</time>
      </trkpt>
      <trkpt lat="44.60724" lon="1.52133">
        <ele>345.01188282689</ele>
        <time>2017-11-06T15:25:10Z</time>
      </trkpt>
      <trkpt lat="44.60721" lon="1.52127">
        <ele>343.8291174243</ele>
        <time>2017-11-06T15:25:14Z</time>
      </trkpt>
      <trkpt lat="44.6072" lon="1.52115">
        <ele>342.9218833236</ele>
        <time>2017-11-06T15:25:20Z</time>
      </trkpt>
      <trkpt lat="44.6072" lon="1.52105">
        <ele>342.2492847426</ele>
        <time>2017-11-06T15:25:31Z</time>
      </trkpt>
      <trkpt lat="44.60713" lon="1.52094">
        <ele>341.85803629055</ele>
        <time>2017-11-06T15:25:36Z</time>
      </trkpt>
      <trkpt lat="44.60707" lon="1.52087">
        <ele>341.6294051021</ele>
        <time>2017-11-06T15:25:45Z</time>
      </trkpt>
      <trkpt lat="44.60698" lon="1.52078">
        <ele>344.74015109396</ele>
        <time>2017-11-06T15:25:52Z</time>
      </trkpt>
      <trkpt lat="44.60692" lon="1.52068">
        <ele>346.64562630331</ele>
        <time>2017-11-06T15:25:56Z</time>
      </trkpt>
      <trkpt lat="44.60688" lon="1.5206">
        <ele>348.00153467806</ele>
        <time>2017-11-06T15:25:59Z</time>
      </trkpt>
      <trkpt lat="44.60683" lon="1.5205">
        <ele>349.30314942518</ele>
        <time>2017-11-06T15:26:02Z</time>
      </trkpt>
      <trkpt lat="44.60678" lon="1.52047">
        <ele>352.51577096904</ele>
        <time>2017-11-06T15:27:00Z</time>
      </trkpt>
      <trkpt lat="44.60669" lon="1.52026">
        <ele>352.35896032022</ele>
        <time>2017-11-06T15:27:04Z</time>
      </trkpt>
      <trkpt lat="44.60661" lon="1.52012">
        <ele>351.92600815343</ele>
        <time>2017-11-06T15:27:08Z</time>
      </trkpt>
      <trkpt lat="44.60658" lon="1.51998">
        <ele>351.43915050115</ele>
        <time>2017-11-06T15:27:11Z</time>
      </trkpt>
      <trkpt lat="44.60658" lon="1.51987">
        <ele>344.6368156128</ele>
        <time>2017-11-06T15:27:45Z</time>
      </trkpt>
      <trkpt lat="44.60653" lon="1.51974">
        <ele>341.85997568249</ele>
        <time>2017-11-06T15:27:50Z</time>
      </trkpt>
      <trkpt lat="44.60656" lon="1.51961">
        <ele>339.83091019161</ele>
        <time>2017-11-06T15:27:54Z</time>
      </trkpt>
      <trkpt lat="44.60659" lon="1.51951">
        <ele>335.56212586255</ele>
        <time>2017-11-06T15:28:02Z</time>
      </trkpt>
      <trkpt lat="44.60663" lon="1.5194">
        <ele>333.19218896339</ele>
        <time>2017-11-06T15:28:08Z</time>
      </trkpt>
      <trkpt lat="44.60666" lon="1.51928">
        <ele>330.86838609774</ele>
        <time>2017-11-06T15:28:14Z</time>
      </trkpt>
      <trkpt lat="44.60672" lon="1.5192">
        <ele>329.66636744903</ele>
        <time>2017-11-06T15:28:19Z</time>
      </trkpt>
      <trkpt lat="44.60675" lon="1.51908">
        <ele>326.47294501418</ele>
        <time>2017-11-06T15:28:27Z</time>
      </trkpt>
      <trkpt lat="44.6068" lon="1.519">
        <ele>323.40421166983</ele>
        <time>2017-11-06T15:28:35Z</time>
      </trkpt>
      <trkpt lat="44.60684" lon="1.51892">
        <ele>321.82808284951</ele>
        <time>2017-11-06T15:28:40Z</time>
      </trkpt>
      <trkpt lat="44.6069" lon="1.51887">
        <ele>320.34950695008</ele>
        <time>2017-11-06T15:28:45Z</time>
      </trkpt>
      <trkpt lat="44.60698" lon="1.51882">
        <ele>318.80310666146</ele>
        <time>2017-11-06T15:28:51Z</time>
      </trkpt>
      <trkpt lat="44.60706" lon="1.5188">
        <ele>317.61656034337</ele>
        <time>2017-11-06T15:28:57Z</time>
      </trkpt>
      <trkpt lat="44.60715" lon="1.51879">
        <ele>321.04490524248</ele>
        <time>2017-11-06T15:29:11Z</time>
      </trkpt>
      <trkpt lat="44.60716" lon="1.51862">
        <ele>321.65597318566</ele>
        <time>2017-11-06T15:29:15Z</time>
      </trkpt>
      <trkpt lat="44.60718" lon="1.51851">
        <ele>321.94615561618</ele>
        <time>2017-11-06T15:29:21Z</time>
      </trkpt>
      <trkpt lat="44.60721" lon="1.51841">
        <ele>321.94280773834</ele>
        <time>2017-11-06T15:29:26Z</time>
      </trkpt>
      <trkpt lat="44.60724" lon="1.51829">
        <ele>321.86855540224</ele>
        <time>2017-11-06T15:29:33Z</time>
      </trkpt>
      <trkpt lat="44.60724" lon="1.51817">
        <ele>321.10431367186</ele>
        <time>2017-11-06T15:29:39Z</time>
      </trkpt>
      <trkpt lat="44.60726" lon="1.51806">
        <ele>320.691417777</ele>
        <time>2017-11-06T15:29:44Z</time>
      </trkpt>
      <trkpt lat="44.60729" lon="1.51794">
        <ele>320.68318551707</ele>
        <time>2017-11-06T15:29:52Z</time>
      </trkpt>
      <trkpt lat="44.60731" lon="1.51783">
        <ele>320.76431828809</ele>
        <time>2017-11-06T15:30:03Z</time>
      </trkpt>
      <trkpt lat="44.60736" lon="1.51774">
        <ele>320.888330091</ele>
        <time>2017-11-06T15:30:12Z</time>
      </trkpt>
      <trkpt lat="44.6074" lon="1.51763">
        <ele>321.00589018682</ele>
        <time>2017-11-06T15:30:18Z</time>
      </trkpt>
      <trkpt lat="44.60746" lon="1.51753">
        <ele>320.8336288721</ele>
        <time>2017-11-06T15:30:22Z</time>
      </trkpt>
      <trkpt lat="44.60748" lon="1.51742">
        <ele>320.0996261006</ele>
        <time>2017-11-06T15:30:31Z</time>
      </trkpt>
      <trkpt lat="44.60752" lon="1.51732">
        <ele>320.15721879823</ele>
        <time>2017-11-06T15:30:37Z</time>
      </trkpt>
      <trkpt lat="44.60754" lon="1.51718">
        <ele>320.599364161</ele>
        <time>2017-11-06T15:30:42Z</time>
      </trkpt>
      <trkpt lat="44.60759" lon="1.51708">
        <ele>322.21157900784</ele>
        <time>2017-11-06T15:30:52Z</time>
      </trkpt>
      <trkpt lat="44.60761" lon="1.51698">
        <ele>322.8241361731</ele>
        <time>2017-11-06T15:30:58Z</time>
      </trkpt>
      <trkpt lat="44.60763" lon="1.51692">
        <ele>323.21917731965</ele>
        <time>2017-11-06T15:31:06Z</time>
      </trkpt>
      <trkpt lat="44.60767" lon="1.51683">
        <ele>323.23049944727</ele>
        <time>2017-11-06T15:31:13Z</time>
      </trkpt>
      <trkpt lat="44.60773" lon="1.51669">
        <ele>324.28006665981</ele>
        <time>2017-11-06T15:31:18Z</time>
      </trkpt>
      <trkpt lat="44.60777" lon="1.51659">
        <ele>325.48959673391</ele>
        <time>2017-11-06T15:31:32Z</time>
      </trkpt>
      <trkpt lat="44.6078" lon="1.51648">
        <ele>326.6659095553</ele>
        <time>2017-11-06T15:31:39Z</time>
      </trkpt>
      <trkpt lat="44.60785" lon="1.51638">
        <ele>327.3484809522</ele>
        <time>2017-11-06T15:31:46Z</time>
      </trkpt>
      <trkpt lat="44.6079" lon="1.51628">
        <ele>327.54641201826</ele>
        <time>2017-11-06T15:31:54Z</time>
      </trkpt>
      <trkpt lat="44.60796" lon="1.51615">
        <ele>327.70033896883</ele>
        <time>2017-11-06T15:31:59Z</time>
      </trkpt>
      <trkpt lat="44.60799" lon="1.51608">
        <ele>328.3592122998</ele>
        <time>2017-11-06T15:32:05Z</time>
      </trkpt>
      <trkpt lat="44.60801" lon="1.51599">
        <ele>329.47185022531</ele>
        <time>2017-11-06T15:32:12Z</time>
      </trkpt>
      <trkpt lat="44.60804" lon="1.51588">
        <ele>329.9603790418</ele>
        <time>2017-11-06T15:32:18Z</time>
      </trkpt>
      <trkpt lat="44.60809" lon="1.51578">
        <ele>329.63297564799</ele>
        <time>2017-11-06T15:32:29Z</time>
      </trkpt>
      <trkpt lat="44.60813" lon="1.51568">
        <ele>328.25999640644</ele>
        <time>2017-11-06T15:32:37Z</time>
      </trkpt>
      <trkpt lat="44.60816" lon="1.51557">
        <ele>326.72726419073</ele>
        <time>2017-11-06T15:32:43Z</time>
      </trkpt>
      <trkpt lat="44.6082" lon="1.51547">
        <ele>325.23903286112</ele>
        <time>2017-11-06T15:32:50Z</time>
      </trkpt>
      <trkpt lat="44.60824" lon="1.51536">
        <ele>324.39235911696</ele>
        <time>2017-11-06T15:32:56Z</time>
      </trkpt>
      <trkpt lat="44.60826" lon="1.51525">
        <ele>323.729829874</ele>
        <time>2017-11-06T15:33:03Z</time>
      </trkpt>
      <trkpt lat="44.60828" lon="1.51515">
        <ele>321.2785416556</ele>
        <time>2017-11-06T15:33:14Z</time>
      </trkpt>
      <trkpt lat="44.60831" lon="1.51505">
        <ele>320.00881152522</ele>
        <time>2017-11-06T15:33:21Z</time>
      </trkpt>
      <trkpt lat="44.60835" lon="1.51491">
        <ele>320.28766792646</ele>
        <time>2017-11-06T15:33:25Z</time>
      </trkpt>
      <trkpt lat="44.60838" lon="1.51483">
        <ele>321.08866215312</ele>
        <time>2017-11-06T15:33:31Z</time>
      </trkpt>
      <trkpt lat="44.60844" lon="1.51474">
        <ele>322.04279837468</ele>
        <time>2017-11-06T15:33:36Z</time>
      </trkpt>
      <trkpt lat="44.60847" lon="1.51464">
        <ele>323.97539634381</ele>
        <time>2017-11-06T15:33:45Z</time>
      </trkpt>
      <trkpt lat="44.60849" lon="1.51452">
        <ele>325.88563587169</ele>
        <time>2017-11-06T15:33:54Z</time>
      </trkpt>
      <trkpt lat="44.60854" lon="1.51442">
        <ele>326.12119547083</ele>
        <time>2017-11-06T15:34:03Z</time>
      </trkpt>
      <trkpt lat="44.60857" lon="1.51432">
        <ele>326.56537964621</ele>
        <time>2017-11-06T15:34:09Z</time>
      </trkpt>
      <trkpt lat="44.6086" lon="1.51421">
        <ele>326.72982662168</ele>
        <time>2017-11-06T15:34:17Z</time>
      </trkpt>
      <trkpt lat="44.60862" lon="1.51409">
        <ele>327.48557623176</ele>
        <time>2017-11-06T15:34:26Z</time>
      </trkpt>
      <trkpt lat="44.60867" lon="1.514">
        <ele>328.45461040211</ele>
        <time>2017-11-06T15:34:36Z</time>
      </trkpt>
      <trkpt lat="44.60873" lon="1.51391">
        <ele>328.40971810311</ele>
        <time>2017-11-06T15:34:48Z</time>
      </trkpt>
      <trkpt lat="44.60876" lon="1.51379">
        <ele>328.34431404508</ele>
        <time>2017-11-06T15:34:54Z</time>
      </trkpt>
      <trkpt lat="44.60879" lon="1.51368">
        <ele>330.01385767517</ele>
        <time>2017-11-06T15:35:01Z</time>
      </trkpt>
      <trkpt lat="44.60884" lon="1.51359">
        <ele>331.53999417746</ele>
        <time>2017-11-06T15:35:09Z</time>
      </trkpt>
      <trkpt lat="44.60889" lon="1.51349">
        <ele>333.72780448141</ele>
        <time>2017-11-06T15:35:17Z</time>
      </trkpt>
      <trkpt lat="44.60895" lon="1.51341">
        <ele>334.98098892646</ele>
        <time>2017-11-06T15:35:24Z</time>
      </trkpt>
      <trkpt lat="44.60902" lon="1.51334">
        <ele>336.44941782203</ele>
        <time>2017-11-06T15:35:34Z</time>
      </trkpt>
      <trkpt lat="44.60908" lon="1.51327">
        <ele>339.16088308607</ele>
        <time>2017-11-06T15:35:44Z</time>
      </trkpt>
      <trkpt lat="44.60913" lon="1.51318">
        <ele>341.00792227675</ele>
        <time>2017-11-06T15:35:51Z</time>
      </trkpt>
      <trkpt lat="44.60917" lon="1.51308">
        <ele>342.4256213509</ele>
        <time>2017-11-06T15:35:58Z</time>
      </trkpt>
      <trkpt lat="44.60921" lon="1.51298">
        <ele>343.53693833287</ele>
        <time>2017-11-06T15:36:04Z</time>
      </trkpt>
      <trkpt lat="44.60926" lon="1.51288">
        <ele>345.18145939016</ele>
        <time>2017-11-06T15:36:14Z</time>
      </trkpt>
      <trkpt lat="44.60932" lon="1.5128">
        <ele>347.48495399661</ele>
        <time>2017-11-06T15:36:21Z</time>
      </trkpt>
      <trkpt lat="44.60939" lon="1.51273">
        <ele>352.39640465468</ele>
        <time>2017-11-06T15:36:34Z</time>
      </trkpt>
      <trkpt lat="44.60946" lon="1.51267">
        <ele>354.51620720969</ele>
        <time>2017-11-06T15:36:41Z</time>
      </trkpt>
      <trkpt lat="44.60952" lon="1.51261">
        <ele>356.01734843349</ele>
        <time>2017-11-06T15:36:47Z</time>
      </trkpt>
      <trkpt lat="44.60959" lon="1.51253">
        <ele>358.02542165086</ele>
        <time>2017-11-06T15:36:58Z</time>
      </trkpt>
      <trkpt lat="44.60963" lon="1.51248">
        <ele>359.42778670291</ele>
        <time>2017-11-06T15:37:07Z</time>
      </trkpt>
      <trkpt lat="44.60972" lon="1.51234">
        <ele>360.06939436755</ele>
        <time>2017-11-06T15:37:12Z</time>
      </trkpt>
      <trkpt lat="44.60978" lon="1.51231">
        <ele>361.59245751755</ele>
        <time>2017-11-06T15:37:25Z</time>
      </trkpt>
      <trkpt lat="44.60986" lon="1.51234">
        <ele>361.86457987974</ele>
        <time>2017-11-06T15:37:31Z</time>
      </trkpt>
      <trkpt lat="44.6099" lon="1.51223">
        <ele>362.17322011282</ele>
        <time>2017-11-06T15:38:43Z</time>
      </trkpt>
      <trkpt lat="44.60991" lon="1.51212">
        <ele>363.302330705</ele>
        <time>2017-11-06T15:38:55Z</time>
      </trkpt>
      <trkpt lat="44.60988" lon="1.51201">
        <ele>364.11931563393</ele>
        <time>2017-11-06T15:39:04Z</time>
      </trkpt>
      <trkpt lat="44.60985" lon="1.51189">
        <ele>363.43923378282</ele>
        <time>2017-11-06T15:39:12Z</time>
      </trkpt>
      <trkpt lat="44.60984" lon="1.51177">
        <ele>362.39689701705</ele>
        <time>2017-11-06T15:39:20Z</time>
      </trkpt>
      <trkpt lat="44.60985" lon="1.51165">
        <ele>361.70645976158</ele>
        <time>2017-11-06T15:39:31Z</time>
      </trkpt>
      <trkpt lat="44.60988" lon="1.51155">
        <ele>361.32108916474</ele>
        <time>2017-11-06T15:39:36Z</time>
      </trkpt>
      <trkpt lat="44.60992" lon="1.51145">
        <ele>360.56417437852</ele>
        <time>2017-11-06T15:39:43Z</time>
      </trkpt>
      <trkpt lat="44.60998" lon="1.51135">
        <ele>358.92887755169</ele>
        <time>2017-11-06T15:39:52Z</time>
      </trkpt>
      <trkpt lat="44.61002" lon="1.51124">
        <ele>358.16325828728</ele>
        <time>2017-11-06T15:40:00Z</time>
      </trkpt>
      <trkpt lat="44.61006" lon="1.51115">
        <ele>359.55318671711</ele>
        <time>2017-11-06T15:40:11Z</time>
      </trkpt>
      <trkpt lat="44.6101" lon="1.51104">
        <ele>360.62295699257</ele>
        <time>2017-11-06T15:40:18Z</time>
      </trkpt>
      <trkpt lat="44.61011" lon="1.51092">
        <ele>363.17831750943</ele>
        <time>2017-11-06T15:40:29Z</time>
      </trkpt>
      <trkpt lat="44.61014" lon="1.51081">
        <ele>364.64968543948</ele>
        <time>2017-11-06T15:40:36Z</time>
      </trkpt>
      <trkpt lat="44.61012" lon="1.51069">
        <ele>365.61914757671</ele>
        <time>2017-11-06T15:40:44Z</time>
      </trkpt>
      <trkpt lat="44.6101" lon="1.51059">
        <ele>366.16588398257</ele>
        <time>2017-11-06T15:40:52Z</time>
      </trkpt>
      <trkpt lat="44.61009" lon="1.51047">
        <ele>366.03921524806</ele>
        <time>2017-11-06T15:40:58Z</time>
      </trkpt>
      <trkpt lat="44.61008" lon="1.51035">
        <ele>366.00616345812</ele>
        <time>2017-11-06T15:41:07Z</time>
      </trkpt>
      <trkpt lat="44.61008" lon="1.51023">
        <ele>365.5293519113</ele>
        <time>2017-11-06T15:41:14Z</time>
      </trkpt>
      <trkpt lat="44.61009" lon="1.51011">
        <ele>364.71591838384</ele>
        <time>2017-11-06T15:41:21Z</time>
      </trkpt>
      <trkpt lat="44.61011" lon="1.51001">
        <ele>364.70776007032</ele>
        <time>2017-11-06T15:41:27Z</time>
      </trkpt>
      <trkpt lat="44.61013" lon="1.5099">
        <ele>364.98903436007</ele>
        <time>2017-11-06T15:41:33Z</time>
      </trkpt>
      <trkpt lat="44.61015" lon="1.50978">
        <ele>365.55282625474</ele>
        <time>2017-11-06T15:41:43Z</time>
      </trkpt>
      <trkpt lat="44.61013" lon="1.50966">
        <ele>366.04512173982</ele>
        <time>2017-11-06T15:41:52Z</time>
      </trkpt>
      <trkpt lat="44.61013" lon="1.50955">
        <ele>366.2893982953</ele>
        <time>2017-11-06T15:42:01Z</time>
      </trkpt>
      <trkpt lat="44.61012" lon="1.50943">
        <ele>366.99782998969</ele>
        <time>2017-11-06T15:42:11Z</time>
      </trkpt>
      <trkpt lat="44.61011" lon="1.50931">
        <ele>368.10190744548</ele>
        <time>2017-11-06T15:42:19Z</time>
      </trkpt>
      <trkpt lat="44.61006" lon="1.50923">
        <ele>369.27306451795</ele>
        <time>2017-11-06T15:42:28Z</time>
      </trkpt>
      <trkpt lat="44.61004" lon="1.50911">
        <ele>370.60125787769</ele>
        <time>2017-11-06T15:42:34Z</time>
      </trkpt>
      <trkpt lat="44.61002" lon="1.509">
        <ele>373.85232777979</ele>
        <time>2017-11-06T15:42:42Z</time>
      </trkpt>
      <trkpt lat="44.60999" lon="1.50889">
        <ele>375.49695674307</ele>
        <time>2017-11-06T15:42:47Z</time>
      </trkpt>
      <trkpt lat="44.61001" lon="1.50877">
        <ele>377.68783066685</ele>
        <time>2017-11-06T15:42:55Z</time>
      </trkpt>
      <trkpt lat="44.61003" lon="1.50867">
        <ele>378.61766982857</ele>
        <time>2017-11-06T15:43:00Z</time>
      </trkpt>
      <trkpt lat="44.61006" lon="1.50857">
        <ele>379.7837350333</ele>
        <time>2017-11-06T15:43:05Z</time>
      </trkpt>
      <trkpt lat="44.6101" lon="1.50846">
        <ele>381.69065006264</ele>
        <time>2017-11-06T15:43:12Z</time>
      </trkpt>
      <trkpt lat="44.61014" lon="1.50835">
        <ele>382.78059656317</ele>
        <time>2017-11-06T15:43:19Z</time>
      </trkpt>
      <trkpt lat="44.61017" lon="1.50825">
        <ele>383.68290532857</ele>
        <time>2017-11-06T15:43:26Z</time>
      </trkpt>
      <trkpt lat="44.6102" lon="1.50815">
        <ele>385.17293994358</ele>
        <time>2017-11-06T15:43:36Z</time>
      </trkpt>
      <trkpt lat="44.6102" lon="1.50802">
        <ele>385.10942358038</ele>
        <time>2017-11-06T15:43:42Z</time>
      </trkpt>
      <trkpt lat="44.61017" lon="1.5079">
        <ele>384.84003515751</ele>
        <time>2017-11-06T15:43:49Z</time>
      </trkpt>
      <trkpt lat="44.61016" lon="1.5078">
        <ele>384.74278245161</ele>
        <time>2017-11-06T15:43:54Z</time>
      </trkpt>
      <trkpt lat="44.61012" lon="1.50769">
        <ele>385.07768661971</ele>
        <time>2017-11-06T15:44:02Z</time>
      </trkpt>
      <trkpt lat="44.61006" lon="1.5076">
        <ele>385.12857198263</ele>
        <time>2017-11-06T15:44:21Z</time>
      </trkpt>
      <trkpt lat="44.61004" lon="1.50749">
        <ele>384.58896080285</ele>
        <time>2017-11-06T15:44:30Z</time>
      </trkpt>
      <trkpt lat="44.61002" lon="1.50738">
        <ele>384.57728189211</ele>
        <time>2017-11-06T15:44:37Z</time>
      </trkpt>
      <trkpt lat="44.60999" lon="1.50726">
        <ele>384.44534314593</ele>
        <time>2017-11-06T15:44:44Z</time>
      </trkpt>
      <trkpt lat="44.60994" lon="1.50717">
        <ele>383.90315813669</ele>
        <time>2017-11-06T15:44:49Z</time>
      </trkpt>
      <trkpt lat="44.60991" lon="1.50707">
        <ele>383.84132509506</ele>
        <time>2017-11-06T15:44:56Z</time>
      </trkpt>
      <trkpt lat="44.60991" lon="1.50694">
        <ele>384.47990150887</ele>
        <time>2017-11-06T15:45:06Z</time>
      </trkpt>
      <trkpt lat="44.60997" lon="1.50687">
        <ele>386.01301971653</ele>
        <time>2017-11-06T15:45:16Z</time>
      </trkpt>
      <trkpt lat="44.61003" lon="1.50679">
        <ele>387.26172161724</ele>
        <time>2017-11-06T15:45:26Z</time>
      </trkpt>
      <trkpt lat="44.6101" lon="1.50671">
        <ele>387.45872403529</ele>
        <time>2017-11-06T15:45:35Z</time>
      </trkpt>
      <trkpt lat="44.61018" lon="1.50668">
        <ele>387.19851696242</ele>
        <time>2017-11-06T15:45:43Z</time>
      </trkpt>
      <trkpt lat="44.61025" lon="1.50664">
        <ele>387.23476768523</ele>
        <time>2017-11-06T15:45:53Z</time>
      </trkpt>
      <trkpt lat="44.61034" lon="1.5066">
        <ele>385.64336644825</ele>
        <time>2017-11-06T15:46:02Z</time>
      </trkpt>
      <trkpt lat="44.6104" lon="1.50652">
        <ele>384.5233018647</ele>
        <time>2017-11-06T15:46:11Z</time>
      </trkpt>
      <trkpt lat="44.61047" lon="1.50646">
        <ele>384.85100532887</ele>
        <time>2017-11-06T15:46:20Z</time>
      </trkpt>
      <trkpt lat="44.61055" lon="1.5064">
        <ele>384.63192202094</ele>
        <time>2017-11-06T15:46:28Z</time>
      </trkpt>
      <trkpt lat="44.61063" lon="1.50637">
        <ele>383.13548866109</ele>
        <time>2017-11-06T15:46:37Z</time>
      </trkpt>
      <trkpt lat="44.61071" lon="1.50635">
        <ele>382.56817844982</ele>
        <time>2017-11-06T15:46:45Z</time>
      </trkpt>
      <trkpt lat="44.61079" lon="1.50635">
        <ele>381.93067849176</ele>
        <time>2017-11-06T15:46:50Z</time>
      </trkpt>
      <trkpt lat="44.61087" lon="1.50638">
        <ele>381.13216154902</ele>
        <time>2017-11-06T15:47:01Z</time>
      </trkpt>
      <trkpt lat="44.61096" lon="1.5064">
        <ele>379.35886938049</ele>
        <time>2017-11-06T15:47:12Z</time>
      </trkpt>
      <trkpt lat="44.61104" lon="1.50645">
        <ele>378.23590694827</ele>
        <time>2017-11-06T15:47:21Z</time>
      </trkpt>
      <trkpt lat="44.61113" lon="1.50649">
        <ele>377.71462723889</ele>
        <time>2017-11-06T15:47:29Z</time>
      </trkpt>
      <trkpt lat="44.61121" lon="1.50653">
        <ele>376.57366804251</ele>
        <time>2017-11-06T15:47:50Z</time>
      </trkpt>
      <trkpt lat="44.61129" lon="1.5065">
        <ele>375.38834859831</ele>
        <time>2017-11-06T15:48:00Z</time>
      </trkpt>
      <trkpt lat="44.61136" lon="1.50646">
        <ele>374.12849755666</ele>
        <time>2017-11-06T15:48:10Z</time>
      </trkpt>
      <trkpt lat="44.61142" lon="1.50636">
        <ele>372.29992876254</ele>
        <time>2017-11-06T15:48:17Z</time>
      </trkpt>
      <trkpt lat="44.61138" lon="1.50627">
        <ele>371.05787387923</ele>
        <time>2017-11-06T15:48:30Z</time>
      </trkpt>
      <trkpt lat="44.6114" lon="1.50616">
        <ele>370.68092892529</ele>
        <time>2017-11-06T15:48:36Z</time>
      </trkpt>
      <trkpt lat="44.61139" lon="1.50605">
        <ele>369.76381111634</ele>
        <time>2017-11-06T15:48:42Z</time>
      </trkpt>
      <trkpt lat="44.61141" lon="1.50594">
        <ele>367.98063246251</ele>
        <time>2017-11-06T15:48:52Z</time>
      </trkpt>
      <trkpt lat="44.61142" lon="1.50605">
        <ele>367.76364063375</ele>
        <time>2017-11-06T15:49:27Z</time>
      </trkpt>
      <trkpt lat="44.61144" lon="1.50601">
        <ele>370.71223252507</ele>
        <time>2017-11-06T15:49:55Z</time>
      </trkpt>
      <trkpt lat="44.61144" lon="1.50601">
        <ele>370.71223252507</ele>
        <time>2017-11-06T15:49:56Z</time>
      </trkpt>
    </trkseg>
  </trk>
</gpx>